<?xml version='1.0' encoding='UTF-8'?><gpx version="1.1" creator="JPX - https://github.com/jenetics/jpx" xmlns="http://www.topografix.com/GPX/1/1"><trk><trkseg><trkpt lat="41.07544318294562" lon="16.784407474665112"><ele>84.0</ele><time>2026-04-26T14:57:33Z</time></trkpt><trkpt lat="41.07515375326545" lon="16.784445214804133"><ele>84.0</ele><time>2026-04-26T14:57:34Z</time></trkpt><trkpt lat="41.0750041125705" lon="16.78439020592655"><ele>84.0</ele><time>2026-04-26T14:57:36Z</time></trkpt><trkpt lat="41.07519280475459" lon="16.784421587465086"><ele>84.0</ele><time>2026-04-26T14:57:40.999Z</time></trkpt><trkpt lat="41.07504415130914" lon="16.784438931330975"><ele>84.0</ele><time>2026-04-26T14:57:45.999Z</time></trkpt><trkpt lat="41.075109085046186" lon="16.78441674389682"><ele>84.0</ele><time>2026-04-26T14:57:52Z</time></trkpt><trkpt lat="41.075205677212615" lon="16.784364906174037"><ele>84.0</ele><time>2026-04-26T14:57:55Z</time></trkpt><trkpt lat="41.07527654639526" lon="16.784338899536618"><ele>84.0</ele><time>2026-04-26T14:57:57Z</time></trkpt><trkpt lat="41.07534163787438" lon="16.784321959437577"><ele>83.83333333333333</ele><time>2026-04-26T14:57:59Z</time></trkpt><trkpt lat="41.075405298351484" lon="16.78429658452511"><ele>83.66666666666667</ele><time>2026-04-26T14:58:01Z</time></trkpt><trkpt lat="41.07549116175687" lon="16.784256070622202"><ele>83.5</ele><time>2026-04-26T14:58:03Z</time></trkpt><trkpt lat="41.0755349755646" lon="16.78418331545848"><ele>83.33333333333334</ele><time>2026-04-26T14:58:13Z</time></trkpt><trkpt lat="41.07545597629514" lon="16.784110234656573"><ele>83.16666666666667</ele><time>2026-04-26T14:58:16Z</time></trkpt><trkpt lat="41.07538000182205" lon="16.784073223867352"><ele>83.0</ele><time>2026-04-26T14:58:18Z</time></trkpt><trkpt lat="41.075290719493005" lon="16.784027977949826"><ele>83.0</ele><time>2026-04-26T14:58:20Z</time></trkpt><trkpt lat="41.07520460636422" lon="16.783982626798146"><ele>83.0</ele><time>2026-04-26T14:58:22Z</time></trkpt><trkpt lat="41.075126597060915" lon="16.783971654791085"><ele>83.0</ele><time>2026-04-26T14:58:24Z</time></trkpt><trkpt lat="41.07503799567399" lon="16.78394005097511"><ele>83.0</ele><time>2026-04-26T14:58:26Z</time></trkpt><trkpt lat="41.07494418402538" lon="16.78386994050991"><ele>83.0</ele><time>2026-04-26T14:58:28Z</time></trkpt><trkpt lat="41.07484219304231" lon="16.783817164555053"><ele>83.0</ele><time>2026-04-26T14:58:30Z</time></trkpt><trkpt lat="41.07472955891378" lon="16.78375125203905"><ele>83.0</ele><time>2026-04-26T14:58:32Z</time></trkpt><trkpt lat="41.07466733048344" lon="16.78373637000983"><ele>83.0</ele><time>2026-04-26T14:58:33Z</time></trkpt><trkpt lat="41.07460665155592" lon="16.783692860352588"><ele>83.0</ele><time>2026-04-26T14:58:34Z</time></trkpt><trkpt lat="41.074511286448704" lon="16.783615563641536"><ele>83.0</ele><time>2026-04-26T14:58:36Z</time></trkpt><trkpt lat="41.07440375159004" lon="16.78356714444999"><ele>83.0</ele><time>2026-04-26T14:58:38Z</time></trkpt><trkpt lat="41.07429827850735" lon="16.78348847004311"><ele>83.0</ele><time>2026-04-26T14:58:40Z</time></trkpt><trkpt lat="41.074197303662935" lon="16.78347414414178"><ele>83.0</ele><time>2026-04-26T14:58:42Z</time></trkpt><trkpt lat="41.0741033999313" lon="16.78346439682376"><ele>83.0</ele><time>2026-04-26T14:58:44Z</time></trkpt><trkpt lat="41.07403541862282" lon="16.783519920239"><ele>83.0</ele><time>2026-04-26T14:58:45Z</time></trkpt><trkpt lat="41.07397956367679" lon="16.78355897557076"><ele>83.2</ele><time>2026-04-26T14:58:46Z</time></trkpt><trkpt lat="41.07392358957716" lon="16.7836055118608"><ele>83.4</ele><time>2026-04-26T14:58:47Z</time></trkpt><trkpt lat="41.07381906987984" lon="16.783670192072773"><ele>83.60000000000001</ele><time>2026-04-26T14:58:49Z</time></trkpt><trkpt lat="41.07372011459804" lon="16.78373035857726"><ele>83.80000000000001</ele><time>2026-04-26T14:58:51Z</time></trkpt><trkpt lat="41.07362348637493" lon="16.783767242297813"><ele>84.0</ele><time>2026-04-26T14:58:53Z</time></trkpt><trkpt lat="41.07350990886164" lon="16.78379299868313"><ele>84.0</ele><time>2026-04-26T14:58:55Z</time></trkpt><trkpt lat="41.07339548054987" lon="16.78380009538326"><ele>84.0</ele><time>2026-04-26T14:58:57Z</time></trkpt><trkpt lat="41.07327849656373" lon="16.783801839549433"><ele>84.0</ele><time>2026-04-26T14:58:59Z</time></trkpt><trkpt lat="41.07317207744284" lon="16.78381392260278"><ele>84.0</ele><time>2026-04-26T14:59:01Z</time></trkpt><trkpt lat="41.07305303005974" lon="16.783831830481375"><ele>84.0</ele><time>2026-04-26T14:59:03Z</time></trkpt><trkpt lat="41.072933776123946" lon="16.783833181639636"><ele>84.0</ele><time>2026-04-26T14:59:05Z</time></trkpt><trkpt lat="41.07282080901995" lon="16.783848848172052"><ele>84.0</ele><time>2026-04-26T14:59:07Z</time></trkpt><trkpt lat="41.07269969546968" lon="16.783861821029383"><ele>84.0</ele><time>2026-04-26T14:59:09Z</time></trkpt><trkpt lat="41.07259845640018" lon="16.783876567219984"><ele>84.0</ele><time>2026-04-26T14:59:11Z</time></trkpt><trkpt lat="41.07248649703774" lon="16.783855171602198"><ele>84.0</ele><time>2026-04-26T14:59:13Z</time></trkpt><trkpt lat="41.07238308577527" lon="16.783799737279477"><ele>84.0</ele><time>2026-04-26T14:59:15Z</time></trkpt><trkpt lat="41.072282365190866" lon="16.78376467006209"><ele>84.0</ele><time>2026-04-26T14:59:17Z</time></trkpt><trkpt lat="41.07217983179941" lon="16.783747378217306"><ele>84.0</ele><time>2026-04-26T14:59:19Z</time></trkpt><trkpt lat="41.072082979486005" lon="16.78382524131034"><ele>84.0</ele><time>2026-04-26T14:59:21Z</time></trkpt><trkpt lat="41.07207448771417" lon="16.783957586486313"><ele>84.0</ele><time>2026-04-26T14:59:23Z</time></trkpt><trkpt lat="41.072100316494655" lon="16.784073982673803"><ele>84.0</ele><time>2026-04-26T14:59:25Z</time></trkpt><trkpt lat="41.07211231668108" lon="16.784177402791574"><ele>84.0</ele><time>2026-04-26T14:59:28Z</time></trkpt><trkpt lat="41.07212441198814" lon="16.784276285153556"><ele>84.0</ele><time>2026-04-26T14:59:30Z</time></trkpt><trkpt lat="41.07213307102264" lon="16.784359924094744"><ele>84.0</ele><time>2026-04-26T14:59:31Z</time></trkpt><trkpt lat="41.07215662635442" lon="16.7844891653878"><ele>84.0</ele><time>2026-04-26T14:59:33Z</time></trkpt><trkpt lat="41.07217934192811" lon="16.784634808718774"><ele>84.0</ele><time>2026-04-26T14:59:35Z</time></trkpt><trkpt lat="41.07219764518292" lon="16.784777080308018"><ele>84.0</ele><time>2026-04-26T14:59:37Z</time></trkpt><trkpt lat="41.07222362644576" lon="16.784897905189066"><ele>84.0</ele><time>2026-04-26T14:59:39Z</time></trkpt><trkpt lat="41.07224050233059" lon="16.785031371062203"><ele>84.0</ele><time>2026-04-26T14:59:41Z</time></trkpt><trkpt lat="41.07226422724387" lon="16.785169789638758"><ele>83.66666666666667</ele><time>2026-04-26T14:59:42.999Z</time></trkpt><trkpt lat="41.07228720598109" lon="16.78529069696981"><ele>83.33333333333333</ele><time>2026-04-26T14:59:44.999Z</time></trkpt><trkpt lat="41.07230497744196" lon="16.785396460339843"><ele>83.0</ele><time>2026-04-26T14:59:46.999Z</time></trkpt><trkpt lat="41.072322451192726" lon="16.78548142864719"><ele>82.66666666666666</ele><time>2026-04-26T14:59:48.999Z</time></trkpt><trkpt lat="41.07229377459627" lon="16.78556849790432"><ele>82.33333333333333</ele><time>2026-04-26T14:59:51.999Z</time></trkpt><trkpt lat="41.07227095271329" lon="16.785656967435465"><ele>82.0</ele><time>2026-04-26T14:59:53.999Z</time></trkpt><trkpt lat="41.072203809190015" lon="16.785757993686346"><ele>82.0</ele><time>2026-04-26T14:59:55.999Z</time></trkpt><trkpt lat="41.07211643978932" lon="16.785770007180172"><ele>82.0</ele><time>2026-04-26T14:59:57.999Z</time></trkpt><trkpt lat="41.07204849895075" lon="16.785815967480648"><ele>82.0</ele><time>2026-04-26T14:59:59.999Z</time></trkpt><trkpt lat="41.072066930361544" lon="16.785911819453375"><ele>82.0</ele><time>2026-04-26T15:00:01.999Z</time></trkpt><trkpt lat="41.07209748351876" lon="16.786058875947038"><ele>82.0</ele><time>2026-04-26T15:00:03.999Z</time></trkpt><trkpt lat="41.07212141638008" lon="16.786199085696534"><ele>81.75</ele><time>2026-04-26T15:00:05.999Z</time></trkpt><trkpt lat="41.07218433294562" lon="16.786323765453787"><ele>81.5</ele><time>2026-04-26T15:00:07.999Z</time></trkpt><trkpt lat="41.07222496401013" lon="16.78645145516657"><ele>81.25</ele><time>2026-04-26T15:00:09.999Z</time></trkpt><trkpt lat="41.07232109926438" lon="16.78655748230626"><ele>81.0</ele><time>2026-04-26T15:00:12Z</time></trkpt><trkpt lat="41.0724142783764" lon="16.786653319320067"><ele>81.5</ele><time>2026-04-26T15:00:14Z</time></trkpt><trkpt lat="41.07251039828572" lon="16.78674942726278"><ele>82.0</ele><time>2026-04-26T15:00:16Z</time></trkpt><trkpt lat="41.07259233524464" lon="16.786866440290108"><ele>82.5</ele><time>2026-04-26T15:00:18Z</time></trkpt><trkpt lat="41.07266610932456" lon="16.786993763435134"><ele>83.0</ele><time>2026-04-26T15:00:20Z</time></trkpt><trkpt lat="41.07270100833588" lon="16.787146148380753"><ele>82.0</ele><time>2026-04-26T15:00:22Z</time></trkpt><trkpt lat="41.07267515125806" lon="16.78730092210943"><ele>81.0</ele><time>2026-04-26T15:00:24Z</time></trkpt><trkpt lat="41.07260564813283" lon="16.78742488335281"><ele>80.0</ele><time>2026-04-26T15:00:26Z</time></trkpt><trkpt lat="41.072553050306766" lon="16.787474963604986"><ele>79.0</ele><time>2026-04-26T15:00:27Z</time></trkpt><trkpt lat="41.072432644198216" lon="16.787458000022703"><ele>78.0</ele><time>2026-04-26T15:00:29Z</time></trkpt><trkpt lat="41.07237383249945" lon="16.787422537855942"><ele>77.6</ele><time>2026-04-26T15:00:30Z</time></trkpt><trkpt lat="41.07229002865763" lon="16.787360096181263"><ele>77.19999999999999</ele><time>2026-04-26T15:00:32Z</time></trkpt><trkpt lat="41.07219444757528" lon="16.78728930644487"><ele>76.8</ele><time>2026-04-26T15:00:34Z</time></trkpt><trkpt lat="41.07210166391324" lon="16.78724539576504"><ele>76.39999999999999</ele><time>2026-04-26T15:00:36Z</time></trkpt><trkpt lat="41.07198967086924" lon="16.787201609834707"><ele>76.0</ele><time>2026-04-26T15:00:38Z</time></trkpt><trkpt lat="41.071925649685" lon="16.78719654437817"><ele>76.0</ele><time>2026-04-26T15:00:39Z</time></trkpt><trkpt lat="41.07180414023233" lon="16.787195454414082"><ele>76.0</ele><time>2026-04-26T15:00:41Z</time></trkpt><trkpt lat="41.071738124541135" lon="16.787195568679593"><ele>76.0</ele><time>2026-04-26T15:00:42Z</time></trkpt><trkpt lat="41.07167353736064" lon="16.787197871530335"><ele>76.0</ele><time>2026-04-26T15:00:43Z</time></trkpt><trkpt lat="41.07153807817266" lon="16.787194891043665"><ele>76.0</ele><time>2026-04-26T15:00:45Z</time></trkpt><trkpt lat="41.0714683828954" lon="16.787193127197252"><ele>76.42857142857143</ele><time>2026-04-26T15:00:46Z</time></trkpt><trkpt lat="41.07139078240394" lon="16.78719881576903"><ele>76.85714285714286</ele><time>2026-04-26T15:00:47Z</time></trkpt><trkpt lat="41.071314692530606" lon="16.787203007141418"><ele>77.28571428571429</ele><time>2026-04-26T15:00:48Z</time></trkpt><trkpt lat="41.07124784928822" lon="16.787207300156084"><ele>77.71428571428572</ele><time>2026-04-26T15:00:49Z</time></trkpt><trkpt lat="41.071182163324764" lon="16.787217570820662"><ele>78.14285714285714</ele><time>2026-04-26T15:00:50Z</time></trkpt><trkpt lat="41.071117559237706" lon="16.78723118709033"><ele>78.57142857142858</ele><time>2026-04-26T15:00:51Z</time></trkpt><trkpt lat="41.071047805969954" lon="16.78724513223344"><ele>79.0</ele><time>2026-04-26T15:00:52Z</time></trkpt><trkpt lat="41.07097931033816" lon="16.7872430214307"><ele>79.0</ele><time>2026-04-26T15:00:53Z</time></trkpt><trkpt lat="41.07090916393138" lon="16.787243357253484"><ele>79.0</ele><time>2026-04-26T15:00:54Z</time></trkpt><trkpt lat="41.0707844863192" lon="16.787242935086077"><ele>79.0</ele><time>2026-04-26T15:00:56Z</time></trkpt><trkpt lat="41.070679907523825" lon="16.78728142065038"><ele>79.0</ele><time>2026-04-26T15:00:58Z</time></trkpt><trkpt lat="41.07058282578736" lon="16.787334289062763"><ele>79.0</ele><time>2026-04-26T15:01:00Z</time></trkpt><trkpt lat="41.070500413950526" lon="16.78741435091056"><ele>79.2</ele><time>2026-04-26T15:01:02Z</time></trkpt><trkpt lat="41.07041303361188" lon="16.787518174563267"><ele>79.4</ele><time>2026-04-26T15:01:04Z</time></trkpt><trkpt lat="41.07036008313579" lon="16.787571109092735"><ele>79.6</ele><time>2026-04-26T15:01:05Z</time></trkpt><trkpt lat="41.07027992576104" lon="16.787645799344737"><ele>79.8</ele><time>2026-04-26T15:01:07Z</time></trkpt><trkpt lat="41.07019488232462" lon="16.78773452251728"><ele>80.0</ele><time>2026-04-26T15:01:09Z</time></trkpt><trkpt lat="41.070099934018096" lon="16.78781260172601"><ele>80.0</ele><time>2026-04-26T15:01:11Z</time></trkpt><trkpt lat="41.06999965634459" lon="16.78786213168628"><ele>80.0</ele><time>2026-04-26T15:01:13Z</time></trkpt><trkpt lat="41.06989814514497" lon="16.787922401854512"><ele>80.0</ele><time>2026-04-26T15:01:15Z</time></trkpt><trkpt lat="41.06978799645821" lon="16.78798494759667"><ele>80.0</ele><time>2026-04-26T15:01:17Z</time></trkpt><trkpt lat="41.06967977578306" lon="16.788057626957265"><ele>79.4</ele><time>2026-04-26T15:01:19Z</time></trkpt><trkpt lat="41.06956192431491" lon="16.788148944169365"><ele>78.8</ele><time>2026-04-26T15:01:21Z</time></trkpt><trkpt lat="41.06950266343167" lon="16.788206309258246"><ele>78.2</ele><time>2026-04-26T15:01:22Z</time></trkpt><trkpt lat="41.06937116255132" lon="16.788288213773317"><ele>77.6</ele><time>2026-04-26T15:01:24Z</time></trkpt><trkpt lat="41.06930343603094" lon="16.78835747930525"><ele>77.0</ele><time>2026-04-26T15:01:25Z</time></trkpt><trkpt lat="41.06924365779791" lon="16.78845208824373"><ele>77.33333333333334</ele><time>2026-04-26T15:01:26Z</time></trkpt><trkpt lat="41.069196764554476" lon="16.788552058743083"><ele>77.66666666666667</ele><time>2026-04-26T15:01:27Z</time></trkpt><trkpt lat="41.069161388812994" lon="16.788657331370054"><ele>78.0</ele><time>2026-04-26T15:01:28Z</time></trkpt><trkpt lat="41.06913500897812" lon="16.788766945740793"><ele>78.33333333333333</ele><time>2026-04-26T15:01:29Z</time></trkpt><trkpt lat="41.069098169399716" lon="16.788876486174736"><ele>78.66666666666666</ele><time>2026-04-26T15:01:30Z</time></trkpt><trkpt lat="41.069063974941834" lon="16.78897490899335"><ele>79.0</ele><time>2026-04-26T15:01:31Z</time></trkpt><trkpt lat="41.06902207008496" lon="16.789087576168743"><ele>78.0</ele><time>2026-04-26T15:01:32Z</time></trkpt><trkpt lat="41.06897826606282" lon="16.789186136468103"><ele>77.0</ele><time>2026-04-26T15:01:33Z</time></trkpt><trkpt lat="41.06891342845592" lon="16.78929736547614"><ele>76.0</ele><time>2026-04-26T15:01:34Z</time></trkpt><trkpt lat="41.068828841675604" lon="16.789371075675934"><ele>75.0</ele><time>2026-04-26T15:01:35Z</time></trkpt><trkpt lat="41.06874406532819" lon="16.789401550536574"><ele>74.0</ele><time>2026-04-26T15:01:36Z</time></trkpt><trkpt lat="41.068638080139856" lon="16.789390040083806"><ele>74.0</ele><time>2026-04-26T15:01:37Z</time></trkpt><trkpt lat="41.06854014494075" lon="16.789355393099314"><ele>74.0</ele><time>2026-04-26T15:01:38Z</time></trkpt><trkpt lat="41.06844700503719" lon="16.789328521931616"><ele>74.0</ele><time>2026-04-26T15:01:39Z</time></trkpt><trkpt lat="41.068350953012605" lon="16.78933556110239"><ele>74.0</ele><time>2026-04-26T15:01:40Z</time></trkpt><trkpt lat="41.068240045121854" lon="16.789333296096896"><ele>74.0</ele><time>2026-04-26T15:01:41Z</time></trkpt><trkpt lat="41.068142181676016" lon="16.78931263923286"><ele>74.60000000000001</ele><time>2026-04-26T15:01:42Z</time></trkpt><trkpt lat="41.06805663023114" lon="16.78930866201929"><ele>75.2</ele><time>2026-04-26T15:01:43Z</time></trkpt><trkpt lat="41.067969642290485" lon="16.78929792503424"><ele>75.80000000000001</ele><time>2026-04-26T15:01:44Z</time></trkpt><trkpt lat="41.06789111728885" lon="16.789273091076176"><ele>76.4</ele><time>2026-04-26T15:01:45Z</time></trkpt><trkpt lat="41.06776799709665" lon="16.789236356602697"><ele>77.0</ele><time>2026-04-26T15:01:47Z</time></trkpt><trkpt lat="41.067676438679065" lon="16.789191236235773"><ele>77.0</ele><time>2026-04-26T15:01:48.999Z</time></trkpt><trkpt lat="41.067608651464106" lon="16.789130848243463"><ele>77.0</ele><time>2026-04-26T15:01:50.999Z</time></trkpt><trkpt lat="41.06754865052647" lon="16.789094492685052"><ele>77.0</ele><time>2026-04-26T15:01:55.999Z</time></trkpt><trkpt lat="41.0675057153207" lon="16.789027837575105"><ele>77.0</ele><time>2026-04-26T15:02:00.999Z</time></trkpt><trkpt lat="41.06746425035861" lon="16.78896395892297"><ele>77.0</ele><time>2026-04-26T15:02:06Z</time></trkpt><trkpt lat="41.06745000100032" lon="16.78888174229891"><ele>77.0</ele><time>2026-04-26T15:02:11Z</time></trkpt><trkpt lat="41.06740533292706" lon="16.78880526521992"><ele>77.0</ele><time>2026-04-26T15:02:17Z</time></trkpt><trkpt lat="41.067372995296545" lon="16.78872729672213"><ele>77.42857142857143</ele><time>2026-04-26T15:02:23Z</time></trkpt><trkpt lat="41.06734494315046" lon="16.78863850307467"><ele>77.85714285714286</ele><time>2026-04-26T15:02:30Z</time></trkpt><trkpt lat="41.06731620109496" lon="16.78856153418142"><ele>78.28571428571428</ele><time>2026-04-26T15:02:36Z</time></trkpt><trkpt lat="41.06728532629914" lon="16.788487090280633"><ele>78.71428571428572</ele><time>2026-04-26T15:02:43Z</time></trkpt><trkpt lat="41.06723876220139" lon="16.78841177745963"><ele>79.14285714285714</ele><time>2026-04-26T15:02:53Z</time></trkpt><trkpt lat="41.0671870563403" lon="16.78835533887884"><ele>79.57142857142857</ele><time>2026-04-26T15:02:56Z</time></trkpt><trkpt lat="41.067132308957355" lon="16.78828344267261"><ele>80.0</ele><time>2026-04-26T15:02:58Z</time></trkpt><trkpt lat="41.06707478006684" lon="16.78822570883197"><ele>80.0</ele><time>2026-04-26T15:03:00Z</time></trkpt><trkpt lat="41.0670124028371" lon="16.78818406624786"><ele>80.0</ele><time>2026-04-26T15:03:02Z</time></trkpt><trkpt lat="41.06693685637804" lon="16.788110780329355"><ele>80.0</ele><time>2026-04-26T15:03:04Z</time></trkpt><trkpt lat="41.0668676189082" lon="16.788073050394463"><ele>80.0</ele><time>2026-04-26T15:03:06Z</time></trkpt><trkpt lat="41.06679883178727" lon="16.788062907824845"><ele>80.0</ele><time>2026-04-26T15:03:08Z</time></trkpt><trkpt lat="41.06670671859604" lon="16.788039884912216"><ele>80.0</ele><time>2026-04-26T15:03:10Z</time></trkpt><trkpt lat="41.06663172925416" lon="16.78800956958413"><ele>79.83333333333334</ele><time>2026-04-26T15:03:12Z</time></trkpt><trkpt lat="41.066559726687295" lon="16.788018640992156"><ele>79.66666666666667</ele><time>2026-04-26T15:03:14Z</time></trkpt><trkpt lat="41.06648686407446" lon="16.788040518532927"><ele>79.5</ele><time>2026-04-26T15:03:16Z</time></trkpt><trkpt lat="41.06640370948663" lon="16.78807691553584"><ele>79.33333333333333</ele><time>2026-04-26T15:03:18Z</time></trkpt><trkpt lat="41.0663187026562" lon="16.78815483090584"><ele>79.16666666666666</ele><time>2026-04-26T15:03:21Z</time></trkpt><trkpt lat="41.0662540472978" lon="16.788214574401707"><ele>79.0</ele><time>2026-04-26T15:03:23Z</time></trkpt><trkpt lat="41.066199358752804" lon="16.788298284041353"><ele>79.0</ele><time>2026-04-26T15:03:25Z</time></trkpt><trkpt lat="41.066158464976034" lon="16.788367673270677"><ele>79.0</ele><time>2026-04-26T15:03:27Z</time></trkpt><trkpt lat="41.06608463276603" lon="16.788441642180185"><ele>79.0</ele><time>2026-04-26T15:03:30Z</time></trkpt><trkpt lat="41.066034487912894" lon="16.788520518512264"><ele>79.0</ele><time>2026-04-26T15:03:33Z</time></trkpt><trkpt lat="41.06599558803513" lon="16.78858860349989"><ele>79.0</ele><time>2026-04-26T15:03:35Z</time></trkpt><trkpt lat="41.06595250639428" lon="16.788702616229717"><ele>79.0</ele><time>2026-04-26T15:03:38Z</time></trkpt><trkpt lat="41.06590406983228" lon="16.788759709205955"><ele>79.5</ele><time>2026-04-26T15:03:40Z</time></trkpt><trkpt lat="41.06585530303194" lon="16.7888305114787"><ele>80.0</ele><time>2026-04-26T15:03:42.001Z</time></trkpt><trkpt lat="41.06579749550737" lon="16.788887072842787"><ele>80.5</ele><time>2026-04-26T15:03:44.001Z</time></trkpt><trkpt lat="41.06573302746275" lon="16.78894136297884"><ele>81.0</ele><time>2026-04-26T15:03:47.001Z</time></trkpt><trkpt lat="41.065689950119385" lon="16.78903673816245"><ele>81.5</ele><time>2026-04-26T15:03:49.001Z</time></trkpt><trkpt lat="41.065639114479225" lon="16.78909718678158"><ele>82.0</ele><time>2026-04-26T15:03:51.001Z</time></trkpt><trkpt lat="41.065574998360475" lon="16.78917945205818"><ele>82.16666666666666</ele><time>2026-04-26T15:03:54.001Z</time></trkpt><trkpt lat="41.06550635294475" lon="16.789254637497706"><ele>82.33333333333333</ele><time>2026-04-26T15:03:56Z</time></trkpt><trkpt lat="41.065460615973656" lon="16.789314472590544"><ele>82.5</ele><time>2026-04-26T15:03:58Z</time></trkpt><trkpt lat="41.06540601577614" lon="16.789370960894175"><ele>82.66666666666667</ele><time>2026-04-26T15:04:00Z</time></trkpt><trkpt lat="41.065338682014236" lon="16.789446076975466"><ele>82.83333333333334</ele><time>2026-04-26T15:04:03Z</time></trkpt><trkpt lat="41.06528125095602" lon="16.789526257557224"><ele>83.0</ele><time>2026-04-26T15:04:06Z</time></trkpt><trkpt lat="41.06522838239681" lon="16.789591659680887"><ele>83.28571428571428</ele><time>2026-04-26T15:04:08Z</time></trkpt><trkpt lat="41.065171620483255" lon="16.789671592451924"><ele>83.57142857142858</ele><time>2026-04-26T15:04:11Z</time></trkpt><trkpt lat="41.06512184141869" lon="16.789727060894503"><ele>83.85714285714286</ele><time>2026-04-26T15:04:13Z</time></trkpt><trkpt lat="41.0650744844776" lon="16.789782347691435"><ele>84.14285714285714</ele><time>2026-04-26T15:04:15Z</time></trkpt><trkpt lat="41.06502604880829" lon="16.789845568900333"><ele>84.42857142857142</ele><time>2026-04-26T15:04:17Z</time></trkpt><trkpt lat="41.064965405710865" lon="16.78992085913767"><ele>84.71428571428572</ele><time>2026-04-26T15:04:19Z</time></trkpt><trkpt lat="41.06490753306485" lon="16.789980354736613"><ele>85.0</ele><time>2026-04-26T15:04:21Z</time></trkpt><trkpt lat="41.06484493948325" lon="16.790049275653477"><ele>85.0</ele><time>2026-04-26T15:04:23Z</time></trkpt><trkpt lat="41.064788147622096" lon="16.79011262114804"><ele>85.0</ele><time>2026-04-26T15:04:25Z</time></trkpt><trkpt lat="41.064729974967165" lon="16.79018025875639"><ele>85.0</ele><time>2026-04-26T15:04:27Z</time></trkpt><trkpt lat="41.06465604653663" lon="16.790247238147828"><ele>85.0</ele><time>2026-04-26T15:04:30Z</time></trkpt><trkpt lat="41.06460408993147" lon="16.790322565940038"><ele>85.0</ele><time>2026-04-26T15:04:32Z</time></trkpt><trkpt lat="41.064535842689054" lon="16.790408001965393"><ele>85.0</ele><time>2026-04-26T15:04:35Z</time></trkpt><trkpt lat="41.06447165613772" lon="16.79046200992317"><ele>85.16666666666666</ele><time>2026-04-26T15:04:37Z</time></trkpt><trkpt lat="41.06439101742151" lon="16.79052015521601"><ele>85.33333333333333</ele><time>2026-04-26T15:04:40Z</time></trkpt><trkpt lat="41.06431975802753" lon="16.790569331218148"><ele>85.5</ele><time>2026-04-26T15:04:42Z</time></trkpt><trkpt lat="41.064256315658355" lon="16.790593564515223"><ele>85.66666666666667</ele><time>2026-04-26T15:04:44Z</time></trkpt><trkpt lat="41.06416781666454" lon="16.79061051111071"><ele>85.83333333333334</ele><time>2026-04-26T15:04:47Z</time></trkpt><trkpt lat="41.06410261676718" lon="16.790613410584236"><ele>86.0</ele><time>2026-04-26T15:04:49Z</time></trkpt><trkpt lat="41.064029125732176" lon="16.790625309111437"><ele>86.0</ele><time>2026-04-26T15:04:51Z</time></trkpt><trkpt lat="41.06396190687994" lon="16.79062218885888"><ele>86.0</ele><time>2026-04-26T15:04:53Z</time></trkpt><trkpt lat="41.06385719509115" lon="16.790599892782357"><ele>86.0</ele><time>2026-04-26T15:04:56Z</time></trkpt><trkpt lat="41.063790153084774" lon="16.79056987415263"><ele>86.0</ele><time>2026-04-26T15:04:58Z</time></trkpt><trkpt lat="41.06372535911886" lon="16.790566295673635"><ele>86.0</ele><time>2026-04-26T15:05:00Z</time></trkpt><trkpt lat="41.06365867774351" lon="16.790533476570243"><ele>86.0</ele><time>2026-04-26T15:05:02Z</time></trkpt><trkpt lat="41.063585698105996" lon="16.790507552710285"><ele>86.00000000000001</ele><time>2026-04-26T15:05:04Z</time></trkpt><trkpt lat="41.063515684879995" lon="16.790495468219888"><ele>86.0</ele><time>2026-04-26T15:05:06Z</time></trkpt><trkpt lat="41.06344454725091" lon="16.790475099132202"><ele>86.0</ele><time>2026-04-26T15:05:08Z</time></trkpt><trkpt lat="41.06335994498231" lon="16.790465273758088"><ele>86.0</ele><time>2026-04-26T15:05:10Z</time></trkpt><trkpt lat="41.06329201608966" lon="16.790437812910966"><ele>86.0</ele><time>2026-04-26T15:05:12Z</time></trkpt><trkpt lat="41.06322386485218" lon="16.79043391370319"><ele>86.00000000000001</ele><time>2026-04-26T15:05:14Z</time></trkpt><trkpt lat="41.063157503574146" lon="16.790418141554458"><ele>86.0</ele><time>2026-04-26T15:05:16Z</time></trkpt><trkpt lat="41.06309391093156" lon="16.790396582057976"><ele>86.16666666666667</ele><time>2026-04-26T15:05:18Z</time></trkpt><trkpt lat="41.062987709190494" lon="16.790384080604746"><ele>86.33333333333334</ele><time>2026-04-26T15:05:21Z</time></trkpt><trkpt lat="41.06292122319389" lon="16.79038379792347"><ele>86.5</ele><time>2026-04-26T15:05:23Z</time></trkpt><trkpt lat="41.06284683837302" lon="16.7903661183883"><ele>86.66666666666667</ele><time>2026-04-26T15:05:25Z</time></trkpt><trkpt lat="41.06277434099211" lon="16.7903339394168"><ele>86.83333333333333</ele><time>2026-04-26T15:05:27Z</time></trkpt><trkpt lat="41.062708500634365" lon="16.790310937862014"><ele>87.0</ele><time>2026-04-26T15:05:29.001Z</time></trkpt><trkpt lat="41.062641845796975" lon="16.79028778554783"><ele>87.0</ele><time>2026-04-26T15:05:31.001Z</time></trkpt><trkpt lat="41.06255142642258" lon="16.79026738142445"><ele>87.0</ele><time>2026-04-26T15:05:33.001Z</time></trkpt><trkpt lat="41.06247412458037" lon="16.7902315174038"><ele>87.0</ele><time>2026-04-26T15:05:35.001Z</time></trkpt><trkpt lat="41.06240973949914" lon="16.790205201986023"><ele>87.0</ele><time>2026-04-26T15:05:37.001Z</time></trkpt><trkpt lat="41.062334009937786" lon="16.790180817022883"><ele>87.0</ele><time>2026-04-26T15:05:39.001Z</time></trkpt><trkpt lat="41.062249560731814" lon="16.79016906896221"><ele>87.0</ele><time>2026-04-26T15:05:41.001Z</time></trkpt><trkpt lat="41.06218690934808" lon="16.790140450833647"><ele>87.33333333333333</ele><time>2026-04-26T15:05:43.001Z</time></trkpt><trkpt lat="41.06210491412263" lon="16.790106516576312"><ele>87.66666666666667</ele><time>2026-04-26T15:05:45.001Z</time></trkpt><trkpt lat="41.06202782699358" lon="16.79007149179619"><ele>88.0</ele><time>2026-04-26T15:05:47.001Z</time></trkpt><trkpt lat="41.06195676202609" lon="16.79003232295494"><ele>88.33333333333334</ele><time>2026-04-26T15:05:49.001Z</time></trkpt><trkpt lat="41.06189592033625" lon="16.78998216274703"><ele>88.66666666666667</ele><time>2026-04-26T15:05:51.001Z</time></trkpt><trkpt lat="41.06183423683067" lon="16.789910121957227"><ele>89.0</ele><time>2026-04-26T15:05:53.001Z</time></trkpt><trkpt lat="41.061779789912165" lon="16.78985177987519"><ele>88.99999999999999</ele><time>2026-04-26T15:05:55.001Z</time></trkpt><trkpt lat="41.06170679975123" lon="16.78983243528413"><ele>89.0</ele><time>2026-04-26T15:05:57.001Z</time></trkpt><trkpt lat="41.06164035337806" lon="16.78987537858398"><ele>89.0</ele><time>2026-04-26T15:05:59.001Z</time></trkpt><trkpt lat="41.06157274889938" lon="16.78991296686533"><ele>89.0</ele><time>2026-04-26T15:06:01Z</time></trkpt><trkpt lat="41.06149243367056" lon="16.78992454441614"><ele>89.0</ele><time>2026-04-26T15:06:03Z</time></trkpt><trkpt lat="41.06141591424213" lon="16.78991674935743"><ele>88.99999999999999</ele><time>2026-04-26T15:06:05Z</time></trkpt><trkpt lat="41.06134851736602" lon="16.789909724917802"><ele>89.0</ele><time>2026-04-26T15:06:07Z</time></trkpt><trkpt lat="41.06128876783868" lon="16.789937759163305"><ele>89.0</ele><time>2026-04-26T15:06:09Z</time></trkpt><trkpt lat="41.061294773569976" lon="16.790027241133828"><ele>89.0</ele><time>2026-04-26T15:06:11Z</time></trkpt><trkpt lat="41.06136121419509" lon="16.790055822987064"><ele>89.0</ele><time>2026-04-26T15:06:13Z</time></trkpt><trkpt lat="41.0614334396556" lon="16.790078692907798"><ele>89.0</ele><time>2026-04-26T15:06:15Z</time></trkpt><trkpt lat="41.06152819590011" lon="16.790137407592407"><ele>89.0</ele><time>2026-04-26T15:06:18Z</time></trkpt><trkpt lat="41.06158933612677" lon="16.790204844996545"><ele>89.0</ele><time>2026-04-26T15:06:20Z</time></trkpt><trkpt lat="41.06160462494258" lon="16.790299163380418"><ele>89.0</ele><time>2026-04-26T15:06:22Z</time></trkpt><trkpt lat="41.06158413106468" lon="16.790430169745086"><ele>89.0</ele><time>2026-04-26T15:06:24Z</time></trkpt><trkpt lat="41.06156156563614" lon="16.79053477166325"><ele>89.0</ele><time>2026-04-26T15:06:26Z</time></trkpt><trkpt lat="41.06154104729498" lon="16.79064579055862"><ele>89.0</ele><time>2026-04-26T15:06:28Z</time></trkpt><trkpt lat="41.061518694627104" lon="16.7907599482891"><ele>89.0</ele><time>2026-04-26T15:06:30Z</time></trkpt><trkpt lat="41.061487528040566" lon="16.790886332021053"><ele>89.0</ele><time>2026-04-26T15:06:32Z</time></trkpt><trkpt lat="41.06146896600724" lon="16.791002496090037"><ele>89.0</ele><time>2026-04-26T15:06:34Z</time></trkpt><trkpt lat="41.06143991707574" lon="16.7911063361239"><ele>89.0</ele><time>2026-04-26T15:06:36Z</time></trkpt><trkpt lat="41.06142482230271" lon="16.791203544039508"><ele>89.0</ele><time>2026-04-26T15:06:38Z</time></trkpt><trkpt lat="41.06140905054103" lon="16.791318395554047"><ele>89.0</ele><time>2026-04-26T15:06:40Z</time></trkpt><trkpt lat="41.06139686872689" lon="16.791432848705742"><ele>89.0</ele><time>2026-04-26T15:06:42Z</time></trkpt><trkpt lat="41.06139766519694" lon="16.7915437444128"><ele>88.83333333333334</ele><time>2026-04-26T15:06:44Z</time></trkpt><trkpt lat="41.061387557217564" lon="16.791640040612094"><ele>88.66666666666667</ele><time>2026-04-26T15:06:46Z</time></trkpt><trkpt lat="41.06139627352393" lon="16.791740889622787"><ele>88.5</ele><time>2026-04-26T15:06:48Z</time></trkpt><trkpt lat="41.06143712132507" lon="16.791842833881685"><ele>88.33333333333333</ele><time>2026-04-26T15:06:50Z</time></trkpt><trkpt lat="41.06152196542008" lon="16.79190769166063"><ele>88.16666666666666</ele><time>2026-04-26T15:06:52Z</time></trkpt><trkpt lat="41.06160674150986" lon="16.791946583944362"><ele>88.0</ele><time>2026-04-26T15:06:54Z</time></trkpt><trkpt lat="41.06167178018438" lon="16.791988718274478"><ele>87.80000000000001</ele><time>2026-04-26T15:06:56Z</time></trkpt><trkpt lat="41.061770256682415" lon="16.792040526980884"><ele>87.6</ele><time>2026-04-26T15:06:58Z</time></trkpt><trkpt lat="41.06185553164392" lon="16.79210150537764"><ele>87.4</ele><time>2026-04-26T15:07:00Z</time></trkpt><trkpt lat="41.06194834275303" lon="16.792175417323445"><ele>87.19999999999999</ele><time>2026-04-26T15:07:02Z</time></trkpt><trkpt lat="41.06203032570373" lon="16.7922387326861"><ele>87.0</ele><time>2026-04-26T15:07:04Z</time></trkpt><trkpt lat="41.062122950723676" lon="16.792292789668966"><ele>87.0</ele><time>2026-04-26T15:07:06Z</time></trkpt><trkpt lat="41.062200104526" lon="16.79235727099778"><ele>87.0</ele><time>2026-04-26T15:07:08Z</time></trkpt><trkpt lat="41.06229319784505" lon="16.792421260945442"><ele>87.0</ele><time>2026-04-26T15:07:10Z</time></trkpt><trkpt lat="41.06238574141758" lon="16.79248701595793"><ele>87.0</ele><time>2026-04-26T15:07:12Z</time></trkpt><trkpt lat="41.062479511471956" lon="16.79254063732773"><ele>87.0</ele><time>2026-04-26T15:07:14Z</time></trkpt><trkpt lat="41.062557382159476" lon="16.792609084900747"><ele>87.19999999999999</ele><time>2026-04-26T15:07:16Z</time></trkpt><trkpt lat="41.06264934822094" lon="16.792683975282923"><ele>87.4</ele><time>2026-04-26T15:07:18Z</time></trkpt><trkpt lat="41.06273575765021" lon="16.7927451185624"><ele>87.6</ele><time>2026-04-26T15:07:20.001Z</time></trkpt><trkpt lat="41.06282172710457" lon="16.792819760845205"><ele>87.80000000000001</ele><time>2026-04-26T15:07:22.001Z</time></trkpt><trkpt lat="41.06290415486093" lon="16.792899243032235"><ele>88.0</ele><time>2026-04-26T15:07:24.001Z</time></trkpt><trkpt lat="41.06298845700372" lon="16.792970625925175"><ele>88.0</ele><time>2026-04-26T15:07:26.001Z</time></trkpt><trkpt lat="41.06307485984271" lon="16.79304019218438"><ele>88.0</ele><time>2026-04-26T15:07:28.001Z</time></trkpt><trkpt lat="41.06315249742097" lon="16.793100940343745"><ele>88.0</ele><time>2026-04-26T15:07:30.001Z</time></trkpt><trkpt lat="41.06324819401418" lon="16.7931581953582"><ele>88.0</ele><time>2026-04-26T15:07:32.001Z</time></trkpt><trkpt lat="41.06332654858714" lon="16.793242717681863"><ele>88.0</ele><time>2026-04-26T15:07:34.001Z</time></trkpt><trkpt lat="41.063404414282054" lon="16.793340298917496"><ele>87.60000000000001</ele><time>2026-04-26T15:07:36.001Z</time></trkpt><trkpt lat="41.063450443631936" lon="16.79344716078105"><ele>87.2</ele><time>2026-04-26T15:07:38.001Z</time></trkpt><trkpt lat="41.063520664646" lon="16.793532391705583"><ele>86.8</ele><time>2026-04-26T15:07:40.001Z</time></trkpt><trkpt lat="41.06358149392402" lon="16.793627928447595"><ele>86.4</ele><time>2026-04-26T15:07:42.001Z</time></trkpt><trkpt lat="41.06364952909535" lon="16.793716883998957"><ele>86.0</ele><time>2026-04-26T15:07:44.001Z</time></trkpt><trkpt lat="41.063727696118555" lon="16.793812930273553"><ele>86.0</ele><time>2026-04-26T15:07:46.001Z</time></trkpt><trkpt lat="41.063767335702565" lon="16.79392151071891"><ele>86.0</ele><time>2026-04-26T15:07:48.001Z</time></trkpt><trkpt lat="41.06383983513155" lon="16.794014270996588"><ele>86.0</ele><time>2026-04-26T15:07:50.001Z</time></trkpt><trkpt lat="41.06389955082509" lon="16.794104324562465"><ele>86.0</ele><time>2026-04-26T15:07:52.001Z</time></trkpt><trkpt lat="41.06394755668869" lon="16.7942004075607"><ele>86.0</ele><time>2026-04-26T15:07:54.001Z</time></trkpt><trkpt lat="41.06399494213047" lon="16.794318934432273"><ele>85.6</ele><time>2026-04-26T15:07:56.001Z</time></trkpt><trkpt lat="41.064057099129215" lon="16.794410323184692"><ele>85.19999999999999</ele><time>2026-04-26T15:07:58.001Z</time></trkpt><trkpt lat="41.06412268904186" lon="16.794512015560464"><ele>84.80000000000001</ele><time>2026-04-26T15:08:00.001Z</time></trkpt><trkpt lat="41.06419000516761" lon="16.794587283219972"><ele>84.4</ele><time>2026-04-26T15:08:02.001Z</time></trkpt><trkpt lat="41.064220337094994" lon="16.79467178184338"><ele>84.0</ele><time>2026-04-26T15:08:03.001Z</time></trkpt><trkpt lat="41.06429603344413" lon="16.794776344268833"><ele>84.0</ele><time>2026-04-26T15:08:05.001Z</time></trkpt><trkpt lat="41.06437049605027" lon="16.794896661061614"><ele>84.0</ele><time>2026-04-26T15:08:07Z</time></trkpt><trkpt lat="41.06444105715137" lon="16.79500600936976"><ele>84.0</ele><time>2026-04-26T15:08:09Z</time></trkpt><trkpt lat="41.064517720539634" lon="16.79511005094281"><ele>84.0</ele><time>2026-04-26T15:08:11Z</time></trkpt><trkpt lat="41.06456885590215" lon="16.795221935388096"><ele>84.0</ele><time>2026-04-26T15:08:13Z</time></trkpt><trkpt lat="41.06461599123903" lon="16.795317698344935"><ele>84.0</ele><time>2026-04-26T15:08:15Z</time></trkpt><trkpt lat="41.064663889472655" lon="16.795426244122105"><ele>84.0</ele><time>2026-04-26T15:08:17Z</time></trkpt><trkpt lat="41.06470515490778" lon="16.79555203067021"><ele>84.0</ele><time>2026-04-26T15:08:19Z</time></trkpt><trkpt lat="41.064747733846325" lon="16.79563342605908"><ele>84.0</ele><time>2026-04-26T15:08:21Z</time></trkpt><trkpt lat="41.06475983812666" lon="16.79576672772424"><ele>84.0</ele><time>2026-04-26T15:08:23Z</time></trkpt><trkpt lat="41.06481993184755" lon="16.795891528821784"><ele>84.0</ele><time>2026-04-26T15:08:25Z</time></trkpt><trkpt lat="41.06485081971623" lon="16.79598141271864"><ele>84.0</ele><time>2026-04-26T15:08:26Z</time></trkpt><trkpt lat="41.064899742628924" lon="16.796071276311086"><ele>84.0</ele><time>2026-04-26T15:08:28Z</time></trkpt><trkpt lat="41.06496459420693" lon="16.79617004733954"><ele>84.0</ele><time>2026-04-26T15:08:30Z</time></trkpt><trkpt lat="41.06502076065629" lon="16.79626816627764"><ele>84.0</ele><time>2026-04-26T15:08:32Z</time></trkpt><trkpt lat="41.06506228168723" lon="16.796373125845452"><ele>84.0</ele><time>2026-04-26T15:08:34Z</time></trkpt><trkpt lat="41.0651130248193" lon="16.79646896030853"><ele>84.0</ele><time>2026-04-26T15:08:36Z</time></trkpt><trkpt lat="41.06517681266409" lon="16.796559432366838"><ele>84.0</ele><time>2026-04-26T15:08:38Z</time></trkpt><trkpt lat="41.065253163945584" lon="16.796625884380198"><ele>84.0</ele><time>2026-04-26T15:08:40Z</time></trkpt><trkpt lat="41.06533405244919" lon="16.79672626380117"><ele>84.0</ele><time>2026-04-26T15:08:42Z</time></trkpt><trkpt lat="41.06541885542575" lon="16.796815922553268"><ele>84.0</ele><time>2026-04-26T15:08:44Z</time></trkpt><trkpt lat="41.0655041741507" lon="16.796869849976765"><ele>84.0</ele><time>2026-04-26T15:08:46Z</time></trkpt><trkpt lat="41.06558006040066" lon="16.796933882495328"><ele>84.0</ele><time>2026-04-26T15:08:48Z</time></trkpt><trkpt lat="41.06565058985517" lon="16.79701357693854"><ele>84.0</ele><time>2026-04-26T15:08:50Z</time></trkpt><trkpt lat="41.065731754316786" lon="16.797092245781602"><ele>84.0</ele><time>2026-04-26T15:08:52Z</time></trkpt><trkpt lat="41.06583802300053" lon="16.79714534251339"><ele>84.0</ele><time>2026-04-26T15:08:54Z</time></trkpt><trkpt lat="41.06589870709443" lon="16.79718653367553"><ele>83.80000000000001</ele><time>2026-04-26T15:08:55Z</time></trkpt><trkpt lat="41.06597895241276" lon="16.797267211285966"><ele>83.60000000000001</ele><time>2026-04-26T15:08:57Z</time></trkpt><trkpt lat="41.06605880934606" lon="16.79737359519527"><ele>83.4</ele><time>2026-04-26T15:08:59Z</time></trkpt><trkpt lat="41.066141325841585" lon="16.797430596195394"><ele>83.2</ele><time>2026-04-26T15:09:01Z</time></trkpt><trkpt lat="41.06622151928101" lon="16.797496886564065"><ele>83.0</ele><time>2026-04-26T15:09:03Z</time></trkpt><trkpt lat="41.06631052799661" lon="16.797580962911695"><ele>83.0</ele><time>2026-04-26T15:09:05Z</time></trkpt><trkpt lat="41.06639115675008" lon="16.797645002259262"><ele>83.0</ele><time>2026-04-26T15:09:07Z</time></trkpt><trkpt lat="41.06647517818492" lon="16.797715324281057"><ele>83.0</ele><time>2026-04-26T15:09:09Z</time></trkpt><trkpt lat="41.066559231773304" lon="16.797799740233962"><ele>83.0</ele><time>2026-04-26T15:09:11Z</time></trkpt><trkpt lat="41.066646133646" lon="16.797867303881368"><ele>83.0</ele><time>2026-04-26T15:09:13Z</time></trkpt><trkpt lat="41.066712704441116" lon="16.797936931419382"><ele>83.0</ele><time>2026-04-26T15:09:15Z</time></trkpt><trkpt lat="41.06680339778326" lon="16.79802494998729"><ele>83.0</ele><time>2026-04-26T15:09:17.001Z</time></trkpt><trkpt lat="41.06688294444028" lon="16.798115203421055"><ele>83.0</ele><time>2026-04-26T15:09:19.001Z</time></trkpt><trkpt lat="41.06697003493633" lon="16.798198458699265"><ele>83.0</ele><time>2026-04-26T15:09:21.001Z</time></trkpt><trkpt lat="41.067059466111246" lon="16.798279369190507"><ele>83.0</ele><time>2026-04-26T15:09:23.001Z</time></trkpt><trkpt lat="41.067151163316645" lon="16.798360425475767"><ele>83.0</ele><time>2026-04-26T15:09:25.001Z</time></trkpt><trkpt lat="41.06724335154133" lon="16.79845651609699"><ele>83.0</ele><time>2026-04-26T15:09:27.001Z</time></trkpt><trkpt lat="41.0673404561202" lon="16.79854351102184"><ele>83.0</ele><time>2026-04-26T15:09:29.001Z</time></trkpt><trkpt lat="41.067430609536636" lon="16.79862714252971"><ele>83.0</ele><time>2026-04-26T15:09:31.001Z</time></trkpt><trkpt lat="41.06752183197021" lon="16.798715230697894"><ele>82.71428571428571</ele><time>2026-04-26T15:09:33.001Z</time></trkpt><trkpt lat="41.0675759431664" lon="16.79876098898728"><ele>82.42857142857143</ele><time>2026-04-26T15:09:34.001Z</time></trkpt><trkpt lat="41.067632010645134" lon="16.798812173265745"><ele>82.14285714285714</ele><time>2026-04-26T15:09:35.001Z</time></trkpt><trkpt lat="41.06768296737678" lon="16.798861253588704"><ele>81.85714285714286</ele><time>2026-04-26T15:09:36.001Z</time></trkpt><trkpt lat="41.067759191435556" lon="16.79888386596412"><ele>81.57142857142857</ele><time>2026-04-26T15:09:37.001Z</time></trkpt><trkpt lat="41.0678182961976" lon="16.798918743631486"><ele>81.28571428571429</ele><time>2026-04-26T15:09:38.001Z</time></trkpt><trkpt lat="41.06790508014026" lon="16.79899218112046"><ele>81.0</ele><time>2026-04-26T15:09:40.001Z</time></trkpt><trkpt lat="41.06800529698207" lon="16.799068625831918"><ele>81.0</ele><time>2026-04-26T15:09:42.001Z</time></trkpt><trkpt lat="41.0680778126634" lon="16.799101256085752"><ele>81.0</ele><time>2026-04-26T15:09:43.001Z</time></trkpt><trkpt lat="41.068141277739905" lon="16.799125294709928"><ele>81.0</ele><time>2026-04-26T15:09:44.001Z</time></trkpt><trkpt lat="41.06820177423379" lon="16.799167256104734"><ele>81.0</ele><time>2026-04-26T15:09:45.001Z</time></trkpt><trkpt lat="41.068259758143746" lon="16.799204515056676"><ele>81.0</ele><time>2026-04-26T15:09:46.001Z</time></trkpt><trkpt lat="41.06831981434652" lon="16.799238934806095"><ele>81.0</ele><time>2026-04-26T15:09:47.001Z</time></trkpt><trkpt lat="41.068387680218805" lon="16.79927199179782"><ele>81.0</ele><time>2026-04-26T15:09:48.001Z</time></trkpt><trkpt lat="41.06845565343078" lon="16.79929576937826"><ele>80.66666666666667</ele><time>2026-04-26T15:09:49.001Z</time></trkpt><trkpt lat="41.068566987113186" lon="16.79937456793973"><ele>80.33333333333333</ele><time>2026-04-26T15:09:51.001Z</time></trkpt><trkpt lat="41.06863404490488" lon="16.799404674893374"><ele>80.0</ele><time>2026-04-26T15:09:52.001Z</time></trkpt><trkpt lat="41.06870748908386" lon="16.79942893757941"><ele>79.66666666666666</ele><time>2026-04-26T15:09:53.001Z</time></trkpt><trkpt lat="41.068768781760426" lon="16.799468155049365"><ele>79.33333333333333</ele><time>2026-04-26T15:09:54.001Z</time></trkpt><trkpt lat="41.06883574813247" lon="16.79950250458618"><ele>79.0</ele><time>2026-04-26T15:09:55.001Z</time></trkpt><trkpt lat="41.06890151455663" lon="16.79955742492502"><ele>79.0</ele><time>2026-04-26T15:09:56.001Z</time></trkpt><trkpt lat="41.06896798374917" lon="16.79959335510995"><ele>79.0</ele><time>2026-04-26T15:09:57.001Z</time></trkpt><trkpt lat="41.06904942720452" lon="16.79963906569308"><ele>79.0</ele><time>2026-04-26T15:09:58.001Z</time></trkpt><trkpt lat="41.06912001628744" lon="16.799684108733576"><ele>79.0</ele><time>2026-04-26T15:09:59.001Z</time></trkpt><trkpt lat="41.06920689298366" lon="16.799729525844317"><ele>79.0</ele><time>2026-04-26T15:10:00.001Z</time></trkpt><trkpt lat="41.06928929501895" lon="16.799780972462045"><ele>79.0</ele><time>2026-04-26T15:10:01.001Z</time></trkpt><trkpt lat="41.0693702683569" lon="16.799816449850123"><ele>77.8</ele><time>2026-04-26T15:10:02.001Z</time></trkpt><trkpt lat="41.06945030403053" lon="16.79986281477856"><ele>76.60000000000001</ele><time>2026-04-26T15:10:03.001Z</time></trkpt><trkpt lat="41.06953550309636" lon="16.79991222852276"><ele>75.4</ele><time>2026-04-26T15:10:04.001Z</time></trkpt><trkpt lat="41.06962516151619" lon="16.799954754660963"><ele>74.2</ele><time>2026-04-26T15:10:05.001Z</time></trkpt><trkpt lat="41.06971799120866" lon="16.80000442601615"><ele>73.0</ele><time>2026-04-26T15:10:06.001Z</time></trkpt><trkpt lat="41.069801523037285" lon="16.800053524980125"><ele>73.0</ele><time>2026-04-26T15:10:07.001Z</time></trkpt><trkpt lat="41.06988999462933" lon="16.800106897755466"><ele>73.0</ele><time>2026-04-26T15:10:08.001Z</time></trkpt><trkpt lat="41.069981263845115" lon="16.800146384902458"><ele>73.0</ele><time>2026-04-26T15:10:09.001Z</time></trkpt><trkpt lat="41.07007111603656" lon="16.80018583003161"><ele>73.0</ele><time>2026-04-26T15:10:10.001Z</time></trkpt><trkpt lat="41.07015592015044" lon="16.800221487329488"><ele>73.0</ele><time>2026-04-26T15:10:11.001Z</time></trkpt><trkpt lat="41.07023523361451" lon="16.800242463034387"><ele>71.83333333333333</ele><time>2026-04-26T15:10:12.001Z</time></trkpt><trkpt lat="41.07031269852168" lon="16.80026403853098"><ele>70.66666666666666</ele><time>2026-04-26T15:10:13Z</time></trkpt><trkpt lat="41.07039144125568" lon="16.800281921771916"><ele>69.5</ele><time>2026-04-26T15:10:14Z</time></trkpt><trkpt lat="41.070472836609014" lon="16.800305242541718"><ele>68.33333333333333</ele><time>2026-04-26T15:10:15Z</time></trkpt><trkpt lat="41.07055631604284" lon="16.80028659981774"><ele>67.16666666666667</ele><time>2026-04-26T15:10:16Z</time></trkpt><trkpt lat="41.07064046188694" lon="16.80028374757747"><ele>66.0</ele><time>2026-04-26T15:10:17Z</time></trkpt><trkpt lat="41.07071992271989" lon="16.800280677775312"><ele>65.66666666666667</ele><time>2026-04-26T15:10:18Z</time></trkpt><trkpt lat="41.0708025031241" lon="16.800283565164182"><ele>65.33333333333333</ele><time>2026-04-26T15:10:19Z</time></trkpt><trkpt lat="41.07088641833442" lon="16.80027141371996"><ele>65.0</ele><time>2026-04-26T15:10:20Z</time></trkpt><trkpt lat="41.07096172493946" lon="16.800278002430787"><ele>64.66666666666666</ele><time>2026-04-26T15:10:21Z</time></trkpt><trkpt lat="41.07104281976184" lon="16.80027952272056"><ele>64.33333333333333</ele><time>2026-04-26T15:10:22Z</time></trkpt><trkpt lat="41.07112792896461" lon="16.800284605065407"><ele>64.0</ele><time>2026-04-26T15:10:23Z</time></trkpt><trkpt lat="41.07120777803142" lon="16.800286354596555"><ele>64.0</ele><time>2026-04-26T15:10:24Z</time></trkpt><trkpt lat="41.07127438417725" lon="16.800282129296562"><ele>63.99999999999999</ele><time>2026-04-26T15:10:25Z</time></trkpt><trkpt lat="41.071352954427994" lon="16.800279385369794"><ele>64.0</ele><time>2026-04-26T15:10:26Z</time></trkpt><trkpt lat="41.07142492235256" lon="16.800269153416643"><ele>64.0</ele><time>2026-04-26T15:10:27Z</time></trkpt><trkpt lat="41.07148755259179" lon="16.800251775843908"><ele>63.99999999999999</ele><time>2026-04-26T15:10:28Z</time></trkpt><trkpt lat="41.07155168235253" lon="16.800222345846286"><ele>64.0</ele><time>2026-04-26T15:10:29Z</time></trkpt><trkpt lat="41.07162714135239" lon="16.800148174057774"><ele>64.0</ele><time>2026-04-26T15:10:31Z</time></trkpt><trkpt lat="41.071731312177846" lon="16.800301853036693"><ele>64.0</ele><time>2026-04-26T15:10:36Z</time></trkpt><trkpt lat="41.071783351658134" lon="16.800377162873733"><ele>64.0</ele><time>2026-04-26T15:10:38Z</time></trkpt><trkpt lat="41.07201564678065" lon="16.800313762457815"><ele>64.0</ele><time>2026-04-26T15:10:43Z</time></trkpt><trkpt lat="41.07210622695359" lon="16.800324848668957"><ele>64.0</ele><time>2026-04-26T15:10:45Z</time></trkpt><trkpt lat="41.07223426959025" lon="16.80029221366425"><ele>64.0</ele><time>2026-04-26T15:10:47Z</time></trkpt><trkpt lat="41.07234815935435" lon="16.800280223671574"><ele>64.0</ele><time>2026-04-26T15:10:49Z</time></trkpt><trkpt lat="41.072450431368516" lon="16.80025755457484"><ele>64.0</ele><time>2026-04-26T15:10:51Z</time></trkpt><trkpt lat="41.07256744520905" lon="16.800254828155506"><ele>64.0</ele><time>2026-04-26T15:10:53Z</time></trkpt><trkpt lat="41.07263351646666" lon="16.800249001029858"><ele>64.0</ele><time>2026-04-26T15:10:54Z</time></trkpt><trkpt lat="41.07272820912199" lon="16.80027055094231"><ele>63.25</ele><time>2026-04-26T15:10:56Z</time></trkpt><trkpt lat="41.072826514682056" lon="16.80033553868389"><ele>62.5</ele><time>2026-04-26T15:10:58Z</time></trkpt><trkpt lat="41.07292455187683" lon="16.800383721004422"><ele>61.75</ele><time>2026-04-26T15:11:00Z</time></trkpt><trkpt lat="41.07301884967931" lon="16.80039993891826"><ele>61.0</ele><time>2026-04-26T15:11:02Z</time></trkpt><trkpt lat="41.07325902200603" lon="16.80043004763936"><ele>61.0</ele><time>2026-04-26T15:11:07Z</time></trkpt><trkpt lat="41.07335674598772" lon="16.80044027986264"><ele>60.99999999999999</ele><time>2026-04-26T15:11:09Z</time></trkpt><trkpt lat="41.07346849705693" lon="16.80044709396146"><ele>60.99999999999999</ele><time>2026-04-26T15:11:11Z</time></trkpt><trkpt lat="41.073556971142885" lon="16.800465310294477"><ele>61.0</ele><time>2026-04-26T15:11:13Z</time></trkpt><trkpt lat="41.07365903447483" lon="16.80049225886179"><ele>61.0</ele><time>2026-04-26T15:11:15Z</time></trkpt><trkpt lat="41.073751628930516" lon="16.80048683364982"><ele>61.0</ele><time>2026-04-26T15:11:17Z</time></trkpt><trkpt lat="41.07396853086949" lon="16.800498476899765"><ele>61.0</ele><time>2026-04-26T15:11:22.001Z</time></trkpt><trkpt lat="41.07407808114463" lon="16.80050893050919"><ele>61.0</ele><time>2026-04-26T15:11:24.001Z</time></trkpt><trkpt lat="41.074169783487285" lon="16.800530041338167"><ele>61.0</ele><time>2026-04-26T15:11:26.001Z</time></trkpt><trkpt lat="41.07427929243741" lon="16.800567187632666"><ele>60.8</ele><time>2026-04-26T15:11:28.001Z</time></trkpt><trkpt lat="41.07439077099573" lon="16.80060160207756"><ele>60.599999999999994</ele><time>2026-04-26T15:11:30.001Z</time></trkpt><trkpt lat="41.07447317326654" lon="16.80066341808357"><ele>60.4</ele><time>2026-04-26T15:11:32.001Z</time></trkpt><trkpt lat="41.07457282546848" lon="16.800708241369655"><ele>60.2</ele><time>2026-04-26T15:11:34.001Z</time></trkpt><trkpt lat="41.074653239618115" lon="16.800760194264054"><ele>60.0</ele><time>2026-04-26T15:11:36.001Z</time></trkpt><trkpt lat="41.07474903001166" lon="16.800797106130975"><ele>60.0</ele><time>2026-04-26T15:11:38.001Z</time></trkpt><trkpt lat="41.07482029998076" lon="16.800840560974653"><ele>60.0</ele><time>2026-04-26T15:11:40.001Z</time></trkpt><trkpt lat="41.0749363791696" lon="16.800892404123033"><ele>60.0</ele><time>2026-04-26T15:11:42.001Z</time></trkpt><trkpt lat="41.07503001930797" lon="16.80095356224826"><ele>60.0</ele><time>2026-04-26T15:11:44.001Z</time></trkpt><trkpt lat="41.07512921969047" lon="16.800996580730533"><ele>60.0</ele><time>2026-04-26T15:11:46.001Z</time></trkpt><trkpt lat="41.075222722026254" lon="16.801057817870966"><ele>59.833333333333336</ele><time>2026-04-26T15:11:48.001Z</time></trkpt><trkpt lat="41.075306880642565" lon="16.801111883343513"><ele>59.66666666666667</ele><time>2026-04-26T15:11:50.001Z</time></trkpt><trkpt lat="41.075380651263174" lon="16.80117695521672"><ele>59.5</ele><time>2026-04-26T15:11:52.001Z</time></trkpt><trkpt lat="41.0754608247706" lon="16.801207207888975"><ele>59.333333333333336</ele><time>2026-04-26T15:11:54.001Z</time></trkpt><trkpt lat="41.07552155785445" lon="16.801272024334907"><ele>59.16666666666667</ele><time>2026-04-26T15:11:56.001Z</time></trkpt><trkpt lat="41.075591118911426" lon="16.80129984105479"><ele>59.0</ele><time>2026-04-26T15:11:58.001Z</time></trkpt><trkpt lat="41.07566743770298" lon="16.80134427791057"><ele>59.00000000000001</ele><time>2026-04-26T15:12:00.001Z</time></trkpt><trkpt lat="41.07575395192908" lon="16.80138808479606"><ele>59.0</ele><time>2026-04-26T15:12:02.001Z</time></trkpt><trkpt lat="41.075831756014004" lon="16.801444479933245"><ele>59.0</ele><time>2026-04-26T15:12:04.001Z</time></trkpt><trkpt lat="41.07590055176618" lon="16.801474093784485"><ele>59.0</ele><time>2026-04-26T15:12:06.001Z</time></trkpt><trkpt lat="41.07596314225444" lon="16.801520112880894"><ele>59.00000000000001</ele><time>2026-04-26T15:12:08.001Z</time></trkpt><trkpt lat="41.076042080787644" lon="16.801571329812052"><ele>59.0</ele><time>2026-04-26T15:12:10.001Z</time></trkpt><trkpt lat="41.076125507416776" lon="16.80159819114831"><ele>58.66666666666667</ele><time>2026-04-26T15:12:12.001Z</time></trkpt><trkpt lat="41.076200360477955" lon="16.801640249153998"><ele>58.333333333333336</ele><time>2026-04-26T15:12:14.001Z</time></trkpt><trkpt lat="41.07626401481081" lon="16.801733504563426"><ele>58.0</ele><time>2026-04-26T15:12:17.001Z</time></trkpt><trkpt lat="41.07634123370903" lon="16.80179558010447"><ele>57.66666666666667</ele><time>2026-04-26T15:12:19Z</time></trkpt><trkpt lat="41.076398331975795" lon="16.801880734787023"><ele>57.333333333333336</ele><time>2026-04-26T15:12:21Z</time></trkpt><trkpt lat="41.07646391721126" lon="16.80196320523164"><ele>57.0</ele><time>2026-04-26T15:12:23Z</time></trkpt><trkpt lat="41.076522630525766" lon="16.802038342530945"><ele>57.0</ele><time>2026-04-26T15:12:25Z</time></trkpt><trkpt lat="41.07660014747245" lon="16.802093176513083"><ele>57.0</ele><time>2026-04-26T15:12:27Z</time></trkpt><trkpt lat="41.076675309465045" lon="16.802014531039333"><ele>57.0</ele><time>2026-04-26T15:12:29Z</time></trkpt><trkpt lat="41.07672458840183" lon="16.801939738427585"><ele>57.0</ele><time>2026-04-26T15:12:32Z</time></trkpt><trkpt lat="41.076829863096904" lon="16.801976971603644"><ele>57.0</ele><time>2026-04-26T15:12:34Z</time></trkpt><trkpt lat="41.07690904629631" lon="16.80204829829037"><ele>57.0</ele><time>2026-04-26T15:12:36Z</time></trkpt><trkpt lat="41.0769534312137" lon="16.80211838406321"><ele>57.0</ele><time>2026-04-26T15:14:05.001Z</time></trkpt><trkpt lat="41.076996469629925" lon="16.802208757956965"><ele>57.0</ele><time>2026-04-26T15:14:08.001Z</time></trkpt><trkpt lat="41.07708410780832" lon="16.802293806867002"><ele>57.0</ele><time>2026-04-26T15:14:11.001Z</time></trkpt><trkpt lat="41.077139284697445" lon="16.802351070847976"><ele>57.0</ele><time>2026-04-26T15:14:14.001Z</time></trkpt><trkpt lat="41.07719072225297" lon="16.802430531439516"><ele>57.0</ele><time>2026-04-26T15:14:16.001Z</time></trkpt><trkpt lat="41.07723338100097" lon="16.802551621946165"><ele>57.0</ele><time>2026-04-26T15:14:18.001Z</time></trkpt><trkpt lat="41.077298778016996" lon="16.80267746693362"><ele>57.0</ele><time>2026-04-26T15:14:21.001Z</time></trkpt><trkpt lat="41.0773548043226" lon="16.802724085866632"><ele>57.0</ele><time>2026-04-26T15:14:23.001Z</time></trkpt><trkpt lat="41.0774084110875" lon="16.80277736521667"><ele>57.0</ele><time>2026-04-26T15:14:25Z</time></trkpt><trkpt lat="41.07745937079081" lon="16.80283700200019"><ele>57.0</ele><time>2026-04-26T15:14:27Z</time></trkpt><trkpt lat="41.0775165882101" lon="16.80291979898268"><ele>57.0</ele><time>2026-04-26T15:14:30Z</time></trkpt><trkpt lat="41.07757400594188" lon="16.80297881155103"><ele>57.6</ele><time>2026-04-26T15:14:32Z</time></trkpt><trkpt lat="41.07761535957392" lon="16.80304657088639"><ele>58.2</ele><time>2026-04-26T15:14:34Z</time></trkpt><trkpt lat="41.07768017275261" lon="16.80302358718251"><ele>58.8</ele><time>2026-04-26T15:14:38Z</time></trkpt><trkpt lat="41.07789620474882" lon="16.802986106603882"><ele>59.4</ele><time>2026-04-26T15:14:51Z</time></trkpt><trkpt lat="41.07795745928797" lon="16.803017156617333"><ele>60.0</ele><time>2026-04-26T15:14:56Z</time></trkpt><trkpt lat="41.07802614451617" lon="16.803002649992226"><ele>60.0</ele><time>2026-04-26T15:15:03Z</time></trkpt><trkpt lat="41.07809028775221" lon="16.802967171901575"><ele>60.0</ele><time>2026-04-26T15:15:10Z</time></trkpt><trkpt lat="41.078137433187415" lon="16.802893059666157"><ele>60.0</ele><time>2026-04-26T15:15:17Z</time></trkpt><trkpt lat="41.07819609414925" lon="16.80281944196617"><ele>60.0</ele><time>2026-04-26T15:15:30Z</time></trkpt><trkpt lat="41.0782278998318" lon="16.80271197495355"><ele>60.0</ele><time>2026-04-26T15:15:34Z</time></trkpt><trkpt lat="41.078265299939744" lon="16.802600355062467"><ele>60.0</ele><time>2026-04-26T15:15:36Z</time></trkpt><trkpt lat="41.07831544749359" lon="16.80251485708045"><ele>61.0</ele><time>2026-04-26T15:15:38Z</time></trkpt><trkpt lat="41.078313440287005" lon="16.802355834705267"><ele>62.0</ele><time>2026-04-26T15:15:40Z</time></trkpt><trkpt lat="41.07836941299479" lon="16.80226104296247"><ele>63.0</ele><time>2026-04-26T15:15:42Z</time></trkpt><trkpt lat="41.0784062868455" lon="16.80211803664437"><ele>64.0</ele><time>2026-04-26T15:15:45Z</time></trkpt><trkpt lat="41.07842965500703" lon="16.801981624002494"><ele>65.0</ele><time>2026-04-26T15:15:47Z</time></trkpt><trkpt lat="41.078470971881266" lon="16.80188279803653"><ele>65.57142857142858</ele><time>2026-04-26T15:15:49Z</time></trkpt><trkpt lat="41.078508095633595" lon="16.80180156911027"><ele>66.14285714285714</ele><time>2026-04-26T15:15:51Z</time></trkpt><trkpt lat="41.07854599147323" lon="16.801721189067226"><ele>66.71428571428572</ele><time>2026-04-26T15:15:53.001Z</time></trkpt><trkpt lat="41.078590794939736" lon="16.80164314966262"><ele>67.28571428571429</ele><time>2026-04-26T15:15:55.001Z</time></trkpt><trkpt lat="41.078637876618615" lon="16.801569175342344"><ele>67.85714285714286</ele><time>2026-04-26T15:15:57.001Z</time></trkpt><trkpt lat="41.078690125959746" lon="16.801504406245957"><ele>68.42857142857143</ele><time>2026-04-26T15:15:59.001Z</time></trkpt><trkpt lat="41.078731434196044" lon="16.801440512038496"><ele>69.0</ele><time>2026-04-26T15:16:01.001Z</time></trkpt><trkpt lat="41.0787765875258" lon="16.80134949328816"><ele>69.0</ele><time>2026-04-26T15:16:04.001Z</time></trkpt><trkpt lat="41.078823052137494" lon="16.801287044209182"><ele>69.0</ele><time>2026-04-26T15:16:06.001Z</time></trkpt><trkpt lat="41.078871780285645" lon="16.80120857998032"><ele>69.0</ele><time>2026-04-26T15:16:08.001Z</time></trkpt><trkpt lat="41.07893487098231" lon="16.801161248264222"><ele>69.0</ele><time>2026-04-26T15:16:10.001Z</time></trkpt><trkpt lat="41.07899535777532" lon="16.801057216066507"><ele>69.0</ele><time>2026-04-26T15:16:13.001Z</time></trkpt><trkpt lat="41.079042680354625" lon="16.80097081713517"><ele>69.0</ele><time>2026-04-26T15:16:15.001Z</time></trkpt><trkpt lat="41.0790851168875" lon="16.80088483282596"><ele>69.16666666666667</ele><time>2026-04-26T15:16:17.001Z</time></trkpt><trkpt lat="41.07912657385558" lon="16.800799986967956"><ele>69.33333333333333</ele><time>2026-04-26T15:16:19.001Z</time></trkpt><trkpt lat="41.07919116395339" lon="16.80070943851969"><ele>69.5</ele><time>2026-04-26T15:16:22.001Z</time></trkpt><trkpt lat="41.07924111434616" lon="16.80060505929912"><ele>69.66666666666666</ele><time>2026-04-26T15:16:25.001Z</time></trkpt><trkpt lat="41.07928780984641" lon="16.800529528688458"><ele>69.83333333333333</ele><time>2026-04-26T15:16:27.001Z</time></trkpt><trkpt lat="41.07932395715601" lon="16.800437138779664"><ele>70.0</ele><time>2026-04-26T15:16:29.001Z</time></trkpt><trkpt lat="41.07935947985975" lon="16.800356780435145"><ele>70.0</ele><time>2026-04-26T15:16:30.999Z</time></trkpt><trkpt lat="41.079407294696836" lon="16.80023679955158"><ele>70.0</ele><time>2026-04-26T15:16:32.999Z</time></trkpt><trkpt lat="41.07944192130428" lon="16.80015382940381"><ele>70.0</ele><time>2026-04-26T15:16:34.999Z</time></trkpt><trkpt lat="41.07947245738353" lon="16.800059657760364"><ele>70.0</ele><time>2026-04-26T15:16:36.999Z</time></trkpt><trkpt lat="41.079488254808226" lon="16.79997371729528"><ele>70.0</ele><time>2026-04-26T15:16:38.999Z</time></trkpt><trkpt lat="41.07947158195313" lon="16.79984647969445"><ele>70.0</ele><time>2026-04-26T15:16:40.999Z</time></trkpt><trkpt lat="41.07950935218629" lon="16.79977746585581"><ele>69.85714285714286</ele><time>2026-04-26T15:16:42.999Z</time></trkpt><trkpt lat="41.07950880290339" lon="16.799683023110056"><ele>69.71428571428572</ele><time>2026-04-26T15:16:49.999Z</time></trkpt><trkpt lat="41.07949678089868" lon="16.79959993311392"><ele>69.57142857142857</ele><time>2026-04-26T15:16:52.999Z</time></trkpt><trkpt lat="41.07955301294555" lon="16.79953281103135"><ele>69.42857142857143</ele><time>2026-04-26T15:16:54.999Z</time></trkpt><trkpt lat="41.07956306632745" lon="16.799440895814122"><ele>69.28571428571429</ele><time>2026-04-26T15:16:57Z</time></trkpt><trkpt lat="41.07957229766849" lon="16.79935560797398"><ele>69.14285714285714</ele><time>2026-04-26T15:16:59Z</time></trkpt><trkpt lat="41.07959581469525" lon="16.79924627687524"><ele>69.0</ele><time>2026-04-26T15:17:02Z</time></trkpt><trkpt lat="41.07959294810671" lon="16.799156770895095"><ele>69.0</ele><time>2026-04-26T15:17:04Z</time></trkpt><trkpt lat="41.0795957751466" lon="16.79904521795667"><ele>69.0</ele><time>2026-04-26T15:17:06Z</time></trkpt><trkpt lat="41.07959586886189" lon="16.798959403890212"><ele>69.0</ele><time>2026-04-26T15:17:08Z</time></trkpt><trkpt lat="41.079594229230295" lon="16.79882544147325"><ele>69.0</ele><time>2026-04-26T15:17:11Z</time></trkpt><trkpt lat="41.07959090401997" lon="16.798735929131713"><ele>69.0</ele><time>2026-04-26T15:17:13Z</time></trkpt><trkpt lat="41.0795837268903" lon="16.79858916246881"><ele>69.0</ele><time>2026-04-26T15:17:16Z</time></trkpt><trkpt lat="41.079574197792454" lon="16.79849986143876"><ele>69.16666666666667</ele><time>2026-04-26T15:17:18Z</time></trkpt><trkpt lat="41.079600648179685" lon="16.798393622036404"><ele>69.33333333333333</ele><time>2026-04-26T15:17:20Z</time></trkpt><trkpt lat="41.079628010219686" lon="16.798292795434424"><ele>69.5</ele><time>2026-04-26T15:17:22Z</time></trkpt><trkpt lat="41.079657354279426" lon="16.798211543968"><ele>69.66666666666666</ele><time>2026-04-26T15:17:24Z</time></trkpt><trkpt lat="41.07968158953153" lon="16.79808986323293"><ele>69.83333333333333</ele><time>2026-04-26T15:17:26Z</time></trkpt><trkpt lat="41.07971821842685" lon="16.798006350033337"><ele>70.0</ele><time>2026-04-26T15:17:28Z</time></trkpt><trkpt lat="41.07974638191796" lon="16.797905355216475"><ele>70.0</ele><time>2026-04-26T15:17:30Z</time></trkpt><trkpt lat="41.07977668536862" lon="16.797790071327814"><ele>70.0</ele><time>2026-04-26T15:17:32Z</time></trkpt><trkpt lat="41.07981323496931" lon="16.797692441549184"><ele>70.0</ele><time>2026-04-26T15:17:34Z</time></trkpt><trkpt lat="41.079838476778086" lon="16.797587163006547"><ele>70.0</ele><time>2026-04-26T15:17:36Z</time></trkpt><trkpt lat="41.07987212505078" lon="16.79748711454911"><ele>70.0</ele><time>2026-04-26T15:17:38Z</time></trkpt><trkpt lat="41.07991239132439" lon="16.797380725600163"><ele>70.0</ele><time>2026-04-26T15:17:40Z</time></trkpt><trkpt lat="41.07995461465584" lon="16.79726823715972"><ele>69.83333333333333</ele><time>2026-04-26T15:17:42Z</time></trkpt><trkpt lat="41.079989844460805" lon="16.797172705501886"><ele>69.66666666666666</ele><time>2026-04-26T15:17:44Z</time></trkpt><trkpt lat="41.08003087824235" lon="16.79706559429762"><ele>69.5</ele><time>2026-04-26T15:17:46Z</time></trkpt><trkpt lat="41.08007641581895" lon="16.79694976267419"><ele>69.33333333333333</ele><time>2026-04-26T15:17:49Z</time></trkpt><trkpt lat="41.08011984575243" lon="16.796851922169836"><ele>69.16666666666667</ele><time>2026-04-26T15:17:51Z</time></trkpt><trkpt lat="41.080152503429794" lon="16.796751690333913"><ele>69.0</ele><time>2026-04-26T15:17:53Z</time></trkpt><trkpt lat="41.08018078830142" lon="16.796651575697485"><ele>69.4</ele><time>2026-04-26T15:17:55Z</time></trkpt><trkpt lat="41.080218661540464" lon="16.796549146837503"><ele>69.80000000000001</ele><time>2026-04-26T15:17:57Z</time></trkpt><trkpt lat="41.08025798691972" lon="16.79643033783056"><ele>70.19999999999999</ele><time>2026-04-26T15:18:00Z</time></trkpt><trkpt lat="41.080296167622514" lon="16.796305891124874"><ele>70.6</ele><time>2026-04-26T15:18:02Z</time></trkpt><trkpt lat="41.08033084272441" lon="16.796221945908428"><ele>71.0</ele><time>2026-04-26T15:18:04Z</time></trkpt><trkpt lat="41.0803726920942" lon="16.7961056358017"><ele>71.0</ele><time>2026-04-26T15:18:06Z</time></trkpt><trkpt lat="41.08039131401212" lon="16.796016331829335"><ele>71.0</ele><time>2026-04-26T15:18:08Z</time></trkpt><trkpt lat="41.0804198950626" lon="16.795914939943152"><ele>71.0</ele><time>2026-04-26T15:18:10Z</time></trkpt><trkpt lat="41.080452664248" lon="16.795825960408084"><ele>71.0</ele><time>2026-04-26T15:18:12Z</time></trkpt><trkpt lat="41.0804938809968" lon="16.795753235353292"><ele>71.0</ele><time>2026-04-26T15:18:14.001Z</time></trkpt><trkpt lat="41.08054451405503" lon="16.79569341417625"><ele>71.0</ele><time>2026-04-26T15:18:16.001Z</time></trkpt><trkpt lat="41.080585209769765" lon="16.795610581692817"><ele>71.0</ele><time>2026-04-26T15:18:18.001Z</time></trkpt><trkpt lat="41.08058972517311" lon="16.795510980651205"><ele>71.16666666666667</ele><time>2026-04-26T15:18:20.001Z</time></trkpt><trkpt lat="41.080576102800215" lon="16.79541933696883"><ele>71.33333333333334</ele><time>2026-04-26T15:18:22.001Z</time></trkpt><trkpt lat="41.08056975204311" lon="16.795299485350867"><ele>71.5</ele><time>2026-04-26T15:18:24.001Z</time></trkpt><trkpt lat="41.080566420842864" lon="16.795197202657636"><ele>71.66666666666667</ele><time>2026-04-26T15:18:26.001Z</time></trkpt><trkpt lat="41.0805648445517" lon="16.795092075095283"><ele>71.83333333333333</ele><time>2026-04-26T15:18:28.001Z</time></trkpt><trkpt lat="41.08056592861485" lon="16.794986394972"><ele>72.0</ele><time>2026-04-26T15:18:30.001Z</time></trkpt><trkpt lat="41.08055586480342" lon="16.794884037324472"><ele>71.66666666666667</ele><time>2026-04-26T15:18:32.001Z</time></trkpt><trkpt lat="41.08055731940916" lon="16.79477162174105"><ele>71.33333333333333</ele><time>2026-04-26T15:18:34.001Z</time></trkpt><trkpt lat="41.08055476747191" lon="16.794665398140282"><ele>71.0</ele><time>2026-04-26T15:18:36.001Z</time></trkpt><trkpt lat="41.08056736031479" lon="16.794556810999353"><ele>70.66666666666666</ele><time>2026-04-26T15:18:38Z</time></trkpt><trkpt lat="41.08055170863108" lon="16.794461588867936"><ele>70.33333333333333</ele><time>2026-04-26T15:18:40Z</time></trkpt><trkpt lat="41.08055265721361" lon="16.794360732481817"><ele>70.0</ele><time>2026-04-26T15:18:42Z</time></trkpt><trkpt lat="41.08054794574016" lon="16.794247868917072"><ele>70.66666666666666</ele><time>2026-04-26T15:18:44Z</time></trkpt><trkpt lat="41.08052398030348" lon="16.794139839922526"><ele>71.33333333333333</ele><time>2026-04-26T15:18:46Z</time></trkpt><trkpt lat="41.08052804343684" lon="16.7940523383292"><ele>72.0</ele><time>2026-04-26T15:18:48Z</time></trkpt><trkpt lat="41.08053135565007" lon="16.79395468144034"><ele>72.66666666666667</ele><time>2026-04-26T15:18:50Z</time></trkpt><trkpt lat="41.08054664102358" lon="16.793831401418995"><ele>73.33333333333334</ele><time>2026-04-26T15:18:53Z</time></trkpt><trkpt lat="41.0805975282114" lon="16.79377326969187"><ele>74.0</ele><time>2026-04-26T15:18:55Z</time></trkpt><trkpt lat="41.08064029045337" lon="16.793690739347806"><ele>74.0</ele><time>2026-04-26T15:18:58Z</time></trkpt><trkpt lat="41.08062521325206" lon="16.79359610105661"><ele>74.0</ele><time>2026-04-26T15:19:01Z</time></trkpt><trkpt lat="41.08063322148293" lon="16.79346161607687"><ele>74.0</ele><time>2026-04-26T15:19:03Z</time></trkpt><trkpt lat="41.08060359448944" lon="16.793380635902388"><ele>74.0</ele><time>2026-04-26T15:19:04Z</time></trkpt><trkpt lat="41.080593881734885" lon="16.793265912140786"><ele>74.0</ele><time>2026-04-26T15:19:06Z</time></trkpt><trkpt lat="41.08058078947153" lon="16.793165850084552"><ele>74.0</ele><time>2026-04-26T15:19:08Z</time></trkpt><trkpt lat="41.080583059893435" lon="16.793074314526628"><ele>74.2</ele><time>2026-04-26T15:19:10Z</time></trkpt><trkpt lat="41.08054302868642" lon="16.792917846539808"><ele>74.4</ele><time>2026-04-26T15:19:12Z</time></trkpt><trkpt lat="41.08052491312266" lon="16.792783296663472"><ele>74.6</ele><time>2026-04-26T15:19:15Z</time></trkpt><trkpt lat="41.08051826303357" lon="16.792698476071106"><ele>74.8</ele><time>2026-04-26T15:19:17Z</time></trkpt><trkpt lat="41.08049650416399" lon="16.792591531519452"><ele>75.0</ele><time>2026-04-26T15:19:19Z</time></trkpt><trkpt lat="41.08048697358673" lon="16.792479550583682"><ele>75.16666666666667</ele><time>2026-04-26T15:19:21Z</time></trkpt><trkpt lat="41.08047574975498" lon="16.79238718650795"><ele>75.33333333333333</ele><time>2026-04-26T15:19:23Z</time></trkpt><trkpt lat="41.080459527047495" lon="16.792288921713382"><ele>75.5</ele><time>2026-04-26T15:19:25Z</time></trkpt><trkpt lat="41.080437483611384" lon="16.792171597050807"><ele>75.66666666666666</ele><time>2026-04-26T15:19:27.001Z</time></trkpt><trkpt lat="41.080439844202104" lon="16.792084624125987"><ele>75.83333333333333</ele><time>2026-04-26T15:19:29.001Z</time></trkpt><trkpt lat="41.080410342934954" lon="16.79196156336762"><ele>76.0</ele><time>2026-04-26T15:19:31.001Z</time></trkpt><trkpt lat="41.08040466118175" lon="16.791858990470324"><ele>76.16666666666666</ele><time>2026-04-26T15:19:33.001Z</time></trkpt><trkpt lat="41.08039067303771" lon="16.79174437422645"><ele>76.33333333333333</ele><time>2026-04-26T15:19:35.001Z</time></trkpt><trkpt lat="41.08037484317822" lon="16.79161233535361"><ele>76.5</ele><time>2026-04-26T15:19:38.001Z</time></trkpt><trkpt lat="41.08035411871218" lon="16.791507669221755"><ele>76.66666666666667</ele><time>2026-04-26T15:19:40.001Z</time></trkpt><trkpt lat="41.08033971600056" lon="16.791422973041"><ele>76.83333333333334</ele><time>2026-04-26T15:19:42.001Z</time></trkpt><trkpt lat="41.080313129035744" lon="16.79134157290114"><ele>77.0</ele><time>2026-04-26T15:19:58.001Z</time></trkpt><trkpt lat="41.080303414288714" lon="16.791214340044988"><ele>77.0</ele><time>2026-04-26T15:20:01.001Z</time></trkpt><trkpt lat="41.08029486817591" lon="16.791120744770737"><ele>77.0</ele><time>2026-04-26T15:20:03.001Z</time></trkpt><trkpt lat="41.080262315686184" lon="16.791017204906193"><ele>77.0</ele><time>2026-04-26T15:20:05.001Z</time></trkpt><trkpt lat="41.08023008976537" lon="16.790905912020985"><ele>77.0</ele><time>2026-04-26T15:20:07.001Z</time></trkpt><trkpt lat="41.080191757225904" lon="16.790806006578606"><ele>77.0</ele><time>2026-04-26T15:20:09.001Z</time></trkpt><trkpt lat="41.08016842699672" lon="16.790694851392413"><ele>77.0</ele><time>2026-04-26T15:20:11.001Z</time></trkpt><trkpt lat="41.08017261093823" lon="16.79059434943265"><ele>77.0</ele><time>2026-04-26T15:20:13.001Z</time></trkpt><trkpt lat="41.080135807592846" lon="16.790498070969743"><ele>77.0</ele><time>2026-04-26T15:20:15.001Z</time></trkpt><trkpt lat="41.080106049382046" lon="16.79042197418109"><ele>77.0</ele><time>2026-04-26T15:20:17.001Z</time></trkpt><trkpt lat="41.08007298644019" lon="16.790330659727797"><ele>77.0</ele><time>2026-04-26T15:20:21.001Z</time></trkpt><trkpt lat="41.080063117696184" lon="16.790241387063826"><ele>77.0</ele><time>2026-04-26T15:20:23.001Z</time></trkpt><trkpt lat="41.08006263194967" lon="16.790131465873902"><ele>77.0</ele><time>2026-04-26T15:20:25.001Z</time></trkpt><trkpt lat="41.08002268633775" lon="16.79001918273913"><ele>77.16666666666667</ele><time>2026-04-26T15:20:27.001Z</time></trkpt><trkpt lat="41.079992162835445" lon="16.78992589195095"><ele>77.33333333333334</ele><time>2026-04-26T15:20:29.001Z</time></trkpt><trkpt lat="41.079951725077905" lon="16.789838581292177"><ele>77.5</ele><time>2026-04-26T15:20:31.001Z</time></trkpt><trkpt lat="41.07988846582968" lon="16.78974408581913"><ele>77.66666666666667</ele><time>2026-04-26T15:20:33.001Z</time></trkpt><trkpt lat="41.079815750358094" lon="16.789670598261154"><ele>77.83333333333333</ele><time>2026-04-26T15:20:35.001Z</time></trkpt><trkpt lat="41.07975450086173" lon="16.789579116183155"><ele>78.0</ele><time>2026-04-26T15:20:37.001Z</time></trkpt><trkpt lat="41.07971900185103" lon="16.78950301819452"><ele>78.14285714285715</ele><time>2026-04-26T15:20:39.001Z</time></trkpt><trkpt lat="41.079682898764396" lon="16.789420329793654"><ele>78.28571428571428</ele><time>2026-04-26T15:20:41.001Z</time></trkpt><trkpt lat="41.079638433440756" lon="16.789354995013763"><ele>78.42857142857143</ele><time>2026-04-26T15:20:43.001Z</time></trkpt><trkpt lat="41.07958020637532" lon="16.789290434701584"><ele>78.57142857142858</ele><time>2026-04-26T15:20:44.001Z</time></trkpt><trkpt lat="41.079559010362296" lon="16.78920095949843"><ele>78.71428571428572</ele><time>2026-04-26T15:20:46.001Z</time></trkpt><trkpt lat="41.07952045385165" lon="16.789125233097995"><ele>78.85714285714286</ele><time>2026-04-26T15:20:48.001Z</time></trkpt><trkpt lat="41.07947533305635" lon="16.789058597152312"><ele>79.0</ele><time>2026-04-26T15:20:50.001Z</time></trkpt><trkpt lat="41.079433123484726" lon="16.788964719950886"><ele>79.16666666666666</ele><time>2026-04-26T15:20:53.001Z</time></trkpt><trkpt lat="41.07939837875678" lon="16.788880028409526"><ele>79.33333333333333</ele><time>2026-04-26T15:20:55.001Z</time></trkpt><trkpt lat="41.07933556694064" lon="16.78879873782397"><ele>79.5</ele><time>2026-04-26T15:20:57.001Z</time></trkpt><trkpt lat="41.079391786184516" lon="16.788665000895577"><ele>79.66666666666667</ele><time>2026-04-26T15:20:59.001Z</time></trkpt><trkpt lat="41.07941994825472" lon="16.788586684627916"><ele>79.83333333333334</ele><time>2026-04-26T15:21:01.001Z</time></trkpt><trkpt lat="41.07945531052216" lon="16.788505534529456"><ele>80.0</ele><time>2026-04-26T15:21:03.001Z</time></trkpt><trkpt lat="41.07949316974102" lon="16.78841036415561"><ele>79.6</ele><time>2026-04-26T15:21:05.001Z</time></trkpt><trkpt lat="41.07951958630364" lon="16.78824632525405"><ele>79.2</ele><time>2026-04-26T15:21:08.001Z</time></trkpt><trkpt lat="41.079542186930546" lon="16.788144918903097"><ele>78.8</ele><time>2026-04-26T15:21:10.001Z</time></trkpt><trkpt lat="41.0795695456474" lon="16.788068259639125"><ele>78.4</ele><time>2026-04-26T15:21:12.001Z</time></trkpt><trkpt lat="41.07958313739725" lon="16.787936276724196"><ele>78.0</ele><time>2026-04-26T15:21:15.001Z</time></trkpt><trkpt lat="41.07961702320833" lon="16.787840112399177"><ele>78.0</ele><time>2026-04-26T15:21:17.001Z</time></trkpt><trkpt lat="41.07965628934312" lon="16.787772145613705"><ele>78.0</ele><time>2026-04-26T15:21:19.001Z</time></trkpt><trkpt lat="41.07965569316224" lon="16.787684485361247"><ele>78.0</ele><time>2026-04-26T15:21:20.001Z</time></trkpt><trkpt lat="41.07968318051792" lon="16.787592826556544"><ele>78.0</ele><time>2026-04-26T15:21:22.001Z</time></trkpt><trkpt lat="41.079727356137866" lon="16.787499472922693"><ele>78.0</ele><time>2026-04-26T15:21:24.001Z</time></trkpt><trkpt lat="41.07975663322008" lon="16.787384319246385"><ele>78.0</ele><time>2026-04-26T15:21:27.001Z</time></trkpt><trkpt lat="41.079776460644624" lon="16.787274441695327"><ele>78.0</ele><time>2026-04-26T15:21:30.001Z</time></trkpt><trkpt lat="41.0798033843853" lon="16.787155266771833"><ele>78.0</ele><time>2026-04-26T15:21:33.001Z</time></trkpt><trkpt lat="41.07983416776222" lon="16.787081706194346"><ele>78.0</ele><time>2026-04-26T15:21:35.001Z</time></trkpt><trkpt lat="41.079861546827885" lon="16.78699752269882"><ele>78.0</ele><time>2026-04-26T15:21:37.001Z</time></trkpt><trkpt lat="41.07989181211261" lon="16.78690005747915"><ele>78.0</ele><time>2026-04-26T15:21:39.001Z</time></trkpt><trkpt lat="41.079907004769936" lon="16.78681705992331"><ele>78.0</ele><time>2026-04-26T15:21:41.001Z</time></trkpt><trkpt lat="41.079926586271704" lon="16.786731192567398"><ele>78.0</ele><time>2026-04-26T15:21:43.001Z</time></trkpt><trkpt lat="41.07997309411084" lon="16.786629661778427"><ele>78.14285714285715</ele><time>2026-04-26T15:21:46.001Z</time></trkpt><trkpt lat="41.07998527655142" lon="16.786537013697195"><ele>78.28571428571428</ele><time>2026-04-26T15:21:48.001Z</time></trkpt><trkpt lat="41.07999779287499" lon="16.786454406418734"><ele>78.42857142857143</ele><time>2026-04-26T15:21:50.001Z</time></trkpt><trkpt lat="41.08002022712393" lon="16.786375277131686"><ele>78.57142857142858</ele><time>2026-04-26T15:21:52.001Z</time></trkpt><trkpt lat="41.08004213444443" lon="16.78629357697837"><ele>78.71428571428572</ele><time>2026-04-26T15:21:54.001Z</time></trkpt><trkpt lat="41.08008494822179" lon="16.78620434702267"><ele>78.85714285714286</ele><time>2026-04-26T15:21:56.001Z</time></trkpt><trkpt lat="41.08011206608145" lon="16.786099074356507"><ele>79.0</ele><time>2026-04-26T15:21:59.001Z</time></trkpt><trkpt lat="41.080124875940555" lon="16.78601540105049"><ele>79.16666666666666</ele><time>2026-04-26T15:22:02.001Z</time></trkpt><trkpt lat="41.08008620747672" lon="16.785882644144536"><ele>79.33333333333333</ele><time>2026-04-26T15:22:05.001Z</time></trkpt><trkpt lat="41.08004387738038" lon="16.78581617819172"><ele>79.5</ele><time>2026-04-26T15:22:06.001Z</time></trkpt><trkpt lat="41.079977169553516" lon="16.785767896114514"><ele>79.66666666666667</ele><time>2026-04-26T15:22:08.001Z</time></trkpt><trkpt lat="41.07991678881046" lon="16.785719243709806"><ele>79.83333333333334</ele><time>2026-04-26T15:22:10.001Z</time></trkpt><trkpt lat="41.079852126079324" lon="16.785666509883892"><ele>80.0</ele><time>2026-04-26T15:22:12.001Z</time></trkpt><trkpt lat="41.07976952030994" lon="16.785596457778066"><ele>80.16666666666667</ele><time>2026-04-26T15:22:15.001Z</time></trkpt><trkpt lat="41.07967901964833" lon="16.785539243922965"><ele>80.33333333333334</ele><time>2026-04-26T15:22:17.001Z</time></trkpt><trkpt lat="41.079633253300976" lon="16.785469278520853"><ele>80.5</ele><time>2026-04-26T15:22:19.001Z</time></trkpt><trkpt lat="41.07956859197524" lon="16.78541278948868"><ele>80.66666666666667</ele><time>2026-04-26T15:22:21.001Z</time></trkpt><trkpt lat="41.07950779156125" lon="16.785335586387358"><ele>80.83333333333333</ele><time>2026-04-26T15:22:23.001Z</time></trkpt><trkpt lat="41.079432323193906" lon="16.785280910319848"><ele>81.0</ele><time>2026-04-26T15:22:25.001Z</time></trkpt><trkpt lat="41.07935533387748" lon="16.785168594159543"><ele>81.0</ele><time>2026-04-26T15:22:28.001Z</time></trkpt><trkpt lat="41.079277069535834" lon="16.785169184869236"><ele>81.0</ele><time>2026-04-26T15:22:29.001Z</time></trkpt><trkpt lat="41.07920642365836" lon="16.785105628376954"><ele>81.0</ele><time>2026-04-26T15:22:31.001Z</time></trkpt><trkpt lat="41.07915162675854" lon="16.785038722166107"><ele>81.0</ele><time>2026-04-26T15:22:33.001Z</time></trkpt><trkpt lat="41.07905903083455" lon="16.784987740911347"><ele>81.0</ele><time>2026-04-26T15:22:36.001Z</time></trkpt><trkpt lat="41.07898627547097" lon="16.784946182842344"><ele>81.0</ele><time>2026-04-26T15:22:38.001Z</time></trkpt><trkpt lat="41.07892023470779" lon="16.78490695329722"><ele>81.0</ele><time>2026-04-26T15:22:40.001Z</time></trkpt><trkpt lat="41.07886943459251" lon="16.78485499878307"><ele>81.0</ele><time>2026-04-26T15:22:42.001Z</time></trkpt><trkpt lat="41.07880500979782" lon="16.78479795979108"><ele>81.0</ele><time>2026-04-26T15:22:44.001Z</time></trkpt><trkpt lat="41.07873124074297" lon="16.784742079839386"><ele>81.0</ele><time>2026-04-26T15:22:47.001Z</time></trkpt><trkpt lat="41.07865571697577" lon="16.784680769326155"><ele>81.0</ele><time>2026-04-26T15:22:50.001Z</time></trkpt><trkpt lat="41.07858632821592" lon="16.784696199041075"><ele>81.0</ele><time>2026-04-26T15:22:51.001Z</time></trkpt><trkpt lat="41.07852306537512" lon="16.784653730810977"><ele>81.0</ele><time>2026-04-26T15:22:53.001Z</time></trkpt><trkpt lat="41.078451162040366" lon="16.784604594470828"><ele>81.0</ele><time>2026-04-26T15:22:55.001Z</time></trkpt><trkpt lat="41.07838064345636" lon="16.78461440130214"><ele>81.0</ele><time>2026-04-26T15:22:56.001Z</time></trkpt><trkpt lat="41.07830822155886" lon="16.784591084054362"><ele>81.0</ele><time>2026-04-26T15:22:58.001Z</time></trkpt><trkpt lat="41.07818118086797" lon="16.78448998636288"><ele>81.0</ele><time>2026-04-26T15:23:01.001Z</time></trkpt><trkpt lat="41.078150654989194" lon="16.784389869604183"><ele>81.16666666666667</ele><time>2026-04-26T15:23:03.001Z</time></trkpt><trkpt lat="41.07807561399478" lon="16.784405563848612"><ele>81.33333333333333</ele><time>2026-04-26T15:23:06.001Z</time></trkpt><trkpt lat="41.07801525259769" lon="16.78437365602993"><ele>81.5</ele><time>2026-04-26T15:23:08.001Z</time></trkpt><trkpt lat="41.07793858137172" lon="16.784347042002402"><ele>81.66666666666666</ele><time>2026-04-26T15:23:10Z</time></trkpt><trkpt lat="41.07787525990197" lon="16.784322355283233"><ele>81.83333333333333</ele><time>2026-04-26T15:23:12Z</time></trkpt><trkpt lat="41.07779918301175" lon="16.78423643238978"><ele>82.0</ele><time>2026-04-26T15:23:14Z</time></trkpt><trkpt lat="41.07774377779582" lon="16.784157330863422"><ele>82.0</ele><time>2026-04-26T15:23:16Z</time></trkpt><trkpt lat="41.0776612921382" lon="16.78414435084806"><ele>82.0</ele><time>2026-04-26T15:23:19Z</time></trkpt><trkpt lat="41.07760465210773" lon="16.784072009769154"><ele>82.0</ele><time>2026-04-26T15:23:21Z</time></trkpt><trkpt lat="41.07752152312555" lon="16.784039461278983"><ele>82.0</ele><time>2026-04-26T15:23:24.001Z</time></trkpt><trkpt lat="41.07755140188769" lon="16.78395346957905"><ele>82.0</ele><time>2026-04-26T15:23:28.001Z</time></trkpt><trkpt lat="41.07761131922802" lon="16.783872682723892"><ele>82.0</ele><time>2026-04-26T15:23:31.001Z</time></trkpt><trkpt lat="41.07763669197641" lon="16.78377015684588"><ele>82.0</ele><time>2026-04-26T15:23:33.001Z</time></trkpt><trkpt lat="41.07767176006467" lon="16.78369620588682"><ele>82.0</ele><time>2026-04-26T15:23:35.001Z</time></trkpt><trkpt lat="41.07773789374067" lon="16.783601042035016"><ele>82.0</ele><time>2026-04-26T15:23:38.001Z</time></trkpt><trkpt lat="41.07779815263011" lon="16.783545146448027"><ele>82.0</ele><time>2026-04-26T15:23:40.001Z</time></trkpt><trkpt lat="41.07786024626495" lon="16.78347482880141"><ele>82.0</ele><time>2026-04-26T15:23:43.001Z</time></trkpt><trkpt lat="41.07786031655504" lon="16.783377860530912"><ele>82.0</ele><time>2026-04-26T15:23:47.001Z</time></trkpt><trkpt lat="41.07779582970051" lon="16.78328787466349"><ele>82.14285714285714</ele><time>2026-04-26T15:23:49.001Z</time></trkpt><trkpt lat="41.077761597028754" lon="16.783193726040295"><ele>82.28571428571428</ele><time>2026-04-26T15:23:50.001Z</time></trkpt><trkpt lat="41.07771033927129" lon="16.78312485814638"><ele>82.42857142857142</ele><time>2026-04-26T15:23:52.001Z</time></trkpt><trkpt lat="41.07768541088355" lon="16.783026750012084"><ele>82.57142857142857</ele><time>2026-04-26T15:23:54.001Z</time></trkpt><trkpt lat="41.07770016034315" lon="16.782939514030613"><ele>82.71428571428572</ele><time>2026-04-26T15:23:57.001Z</time></trkpt><trkpt lat="41.077715571937915" lon="16.782857641923165"><ele>82.85714285714285</ele><time>2026-04-26T15:23:59.001Z</time></trkpt><trkpt lat="41.07777588883753" lon="16.782784704444918"><ele>83.0</ele><time>2026-04-26T15:24:01.001Z</time></trkpt><trkpt lat="41.07778994607227" lon="16.78269233648985"><ele>83.16666666666667</ele><time>2026-04-26T15:24:04.001Z</time></trkpt><trkpt lat="41.077786053257206" lon="16.78259107124885"><ele>83.33333333333334</ele><time>2026-04-26T15:24:06.001Z</time></trkpt><trkpt lat="41.07787232991035" lon="16.7825219930827"><ele>83.5</ele><time>2026-04-26T15:24:07.001Z</time></trkpt><trkpt lat="41.077888059286956" lon="16.782420865486362"><ele>83.66666666666667</ele><time>2026-04-26T15:24:09.001Z</time></trkpt><trkpt lat="41.077966035079264" lon="16.78234879036261"><ele>83.83333333333333</ele><time>2026-04-26T15:24:11.001Z</time></trkpt><trkpt lat="41.078012572926674" lon="16.782279883490933"><ele>84.0</ele><time>2026-04-26T15:24:14.001Z</time></trkpt><trkpt lat="41.07804994086155" lon="16.782212476581602"><ele>84.0</ele><time>2026-04-26T15:24:16.001Z</time></trkpt><trkpt lat="41.07799581771888" lon="16.78210213069158"><ele>84.0</ele><time>2026-04-26T15:24:20.001Z</time></trkpt><trkpt lat="41.07797138223162" lon="16.781990928555423"><ele>84.0</ele><time>2026-04-26T15:24:22.001Z</time></trkpt><trkpt lat="41.07796763211167" lon="16.781901637567895"><ele>84.0</ele><time>2026-04-26T15:24:25.001Z</time></trkpt><trkpt lat="41.07807575948235" lon="16.781871573781284"><ele>84.0</ele><time>2026-04-26T15:24:28.001Z</time></trkpt><trkpt lat="41.07812202681157" lon="16.781805774399842"><ele>84.0</ele><time>2026-04-26T15:24:30.001Z</time></trkpt><trkpt lat="41.078142583939325" lon="16.78167053629075"><ele>84.0</ele><time>2026-04-26T15:24:32.001Z</time></trkpt><trkpt lat="41.0781521237691" lon="16.781580008133478"><ele>84.0</ele><time>2026-04-26T15:24:34.001Z</time></trkpt><trkpt lat="41.07817294261701" lon="16.781444903819164"><ele>84.0</ele><time>2026-04-26T15:24:37.001Z</time></trkpt><trkpt lat="41.07818081826044" lon="16.78133221842813"><ele>84.0</ele><time>2026-04-26T15:24:39.001Z</time></trkpt><trkpt lat="41.078212131796285" lon="16.781256751240097"><ele>84.0</ele><time>2026-04-26T15:24:41.001Z</time></trkpt><trkpt lat="41.078220579343366" lon="16.781166055440153"><ele>84.0</ele><time>2026-04-26T15:24:44.001Z</time></trkpt><trkpt lat="41.07825165906896" lon="16.781087933076922"><ele>84.0</ele><time>2026-04-26T15:24:46.001Z</time></trkpt><trkpt lat="41.07825267905858" lon="16.780969479446565"><ele>84.0</ele><time>2026-04-26T15:24:48.001Z</time></trkpt><trkpt lat="41.07838106160712" lon="16.780891894230706"><ele>84.0</ele><time>2026-04-26T15:25:00Z</time></trkpt><trkpt lat="41.07846491092753" lon="16.78087923995548"><ele>84.0</ele><time>2026-04-26T15:25:02Z</time></trkpt><trkpt lat="41.07863303557065" lon="16.780887594351697"><ele>83.75</ele><time>2026-04-26T15:25:06Z</time></trkpt><trkpt lat="41.07887673434771" lon="16.780854642890514"><ele>83.5</ele><time>2026-04-26T15:25:11Z</time></trkpt><trkpt lat="41.078966245734016" lon="16.7808529791396"><ele>83.25</ele><time>2026-04-26T15:25:14Z</time></trkpt><trkpt lat="41.07907339947018" lon="16.780832443191375"><ele>83.0</ele><time>2026-04-26T15:25:16Z</time></trkpt><trkpt lat="41.07917706907935" lon="16.780806117002758"><ele>83.0</ele><time>2026-04-26T15:25:18Z</time></trkpt><trkpt lat="41.07926841282627" lon="16.78074409857594"><ele>83.0</ele><time>2026-04-26T15:25:20Z</time></trkpt><trkpt lat="41.07932726277754" lon="16.780689509642105"><ele>83.0</ele><time>2026-04-26T15:25:22Z</time></trkpt><trkpt lat="41.079404167193125" lon="16.780657486720113"><ele>83.0</ele><time>2026-04-26T15:25:24Z</time></trkpt><trkpt lat="41.07950790137068" lon="16.780594545123538"><ele>83.0</ele><time>2026-04-26T15:25:26Z</time></trkpt><trkpt lat="41.07958715809042" lon="16.780540533535365"><ele>83.0</ele><time>2026-04-26T15:25:28Z</time></trkpt><trkpt lat="41.07964963259784" lon="16.780472591545315"><ele>83.0</ele><time>2026-04-26T15:25:30Z</time></trkpt><trkpt lat="41.07972507005412" lon="16.780385855011694"><ele>83.0</ele><time>2026-04-26T15:25:32Z</time></trkpt><trkpt lat="41.07983276839629" lon="16.78032966439049"><ele>83.0</ele><time>2026-04-26T15:25:34Z</time></trkpt><trkpt lat="41.07991823104406" lon="16.780257372975612"><ele>83.0</ele><time>2026-04-26T15:25:36Z</time></trkpt><trkpt lat="41.080025021568915" lon="16.780213388651788"><ele>83.60000000000001</ele><time>2026-04-26T15:25:38Z</time></trkpt><trkpt lat="41.08008784737329" lon="16.780140525528832"><ele>84.2</ele><time>2026-04-26T15:25:40Z</time></trkpt><trkpt lat="41.08015029773886" lon="16.780049911684834"><ele>84.8</ele><time>2026-04-26T15:25:42Z</time></trkpt><trkpt lat="41.080209424832084" lon="16.779963942602944"><ele>85.4</ele><time>2026-04-26T15:25:44Z</time></trkpt><trkpt lat="41.08028432947538" lon="16.779898962544095"><ele>86.0</ele><time>2026-04-26T15:25:46Z</time></trkpt><trkpt lat="41.08034764947201" lon="16.77978972261411"><ele>86.0</ele><time>2026-04-26T15:25:48Z</time></trkpt><trkpt lat="41.08035490825289" lon="16.77969728839171"><ele>86.0</ele><time>2026-04-26T15:25:49Z</time></trkpt><trkpt lat="41.08035253997268" lon="16.779585381053423"><ele>86.0</ele><time>2026-04-26T15:25:51Z</time></trkpt><trkpt lat="41.08042979616095" lon="16.77948419687535"><ele>86.0</ele><time>2026-04-26T15:25:53Z</time></trkpt><trkpt lat="41.08049768400558" lon="16.77940336032609"><ele>86.0</ele><time>2026-04-26T15:25:55Z</time></trkpt><trkpt lat="41.08056278504189" lon="16.779353118708823"><ele>86.0</ele><time>2026-04-26T15:25:57Z</time></trkpt><trkpt lat="41.08063310104163" lon="16.779266107381574"><ele>86.19999999999999</ele><time>2026-04-26T15:25:59Z</time></trkpt><trkpt lat="41.0807078686117" lon="16.779194698748505"><ele>86.39999999999999</ele><time>2026-04-26T15:26:01Z</time></trkpt><trkpt lat="41.080793537816724" lon="16.779084898623786"><ele>86.6</ele><time>2026-04-26T15:26:03Z</time></trkpt><trkpt lat="41.08084877825358" lon="16.77901132083176"><ele>86.8</ele><time>2026-04-26T15:26:05Z</time></trkpt><trkpt lat="41.08096875231047" lon="16.778977790333485"><ele>87.0</ele><time>2026-04-26T15:26:07.001Z</time></trkpt><trkpt lat="41.08100288841733" lon="16.778872443222188"><ele>86.6</ele><time>2026-04-26T15:26:09.001Z</time></trkpt><trkpt lat="41.08104900539998" lon="16.77876946464296"><ele>86.19999999999999</ele><time>2026-04-26T15:26:11.001Z</time></trkpt><trkpt lat="41.08123223667702" lon="16.778660709888477"><ele>85.8</ele><time>2026-04-26T15:26:15.001Z</time></trkpt><trkpt lat="41.08126806380861" lon="16.77858373970364"><ele>85.4</ele><time>2026-04-26T15:26:17.001Z</time></trkpt><trkpt lat="41.08134749581697" lon="16.778552766978034"><ele>85.0</ele><time>2026-04-26T15:26:19.001Z</time></trkpt><trkpt lat="41.08141240972719" lon="16.77847866817586"><ele>85.0</ele><time>2026-04-26T15:26:22.001Z</time></trkpt><trkpt lat="41.08146601318326" lon="16.778424027063124"><ele>85.0</ele><time>2026-04-26T15:26:24.001Z</time></trkpt><trkpt lat="41.081520304087825" lon="16.778351650218546"><ele>85.0</ele><time>2026-04-26T15:26:26.001Z</time></trkpt><trkpt lat="41.08159525012336" lon="16.778329971003316"><ele>85.0</ele><time>2026-04-26T15:26:28.001Z</time></trkpt><trkpt lat="41.081675940567415" lon="16.778313621630016"><ele>85.0</ele><time>2026-04-26T15:26:31.001Z</time></trkpt><trkpt lat="41.081718872615234" lon="16.77821803485799"><ele>85.0</ele><time>2026-04-26T15:26:34.001Z</time></trkpt><trkpt lat="41.081723163526966" lon="16.77811658332889"><ele>84.8</ele><time>2026-04-26T15:26:36.001Z</time></trkpt><trkpt lat="41.081739771366045" lon="16.778033791346786"><ele>84.6</ele><time>2026-04-26T15:26:38.001Z</time></trkpt><trkpt lat="41.08173665318788" lon="16.777867452131332"><ele>84.4</ele><time>2026-04-26T15:26:40.001Z</time></trkpt><trkpt lat="41.081711330909066" lon="16.77775735350771"><ele>84.2</ele><time>2026-04-26T15:26:42.001Z</time></trkpt><trkpt lat="41.08171645713142" lon="16.77759994103051"><ele>84.0</ele><time>2026-04-26T15:26:44.001Z</time></trkpt><trkpt lat="41.08172502622179" lon="16.777507392891753"><ele>84.0</ele><time>2026-04-26T15:26:46.001Z</time></trkpt><trkpt lat="41.081733319422284" lon="16.777424489433354"><ele>84.0</ele><time>2026-04-26T15:26:48.001Z</time></trkpt><trkpt lat="41.08174798090583" lon="16.777281285446218"><ele>84.0</ele><time>2026-04-26T15:26:51.001Z</time></trkpt><trkpt lat="41.081751140104984" lon="16.777180405103614"><ele>84.0</ele><time>2026-04-26T15:26:53.001Z</time></trkpt><trkpt lat="41.08174207615062" lon="16.777045794504602"><ele>84.0</ele><time>2026-04-26T15:26:55.001Z</time></trkpt><trkpt lat="41.081719333819564" lon="16.776833296309537"><ele>84.0</ele><time>2026-04-26T15:26:57.001Z</time></trkpt><trkpt lat="41.0817688492526" lon="16.776696303426938"><ele>84.0</ele><time>2026-04-26T15:26:59.001Z</time></trkpt><trkpt lat="41.08176084314635" lon="16.77657541533528"><ele>84.0</ele><time>2026-04-26T15:27:01Z</time></trkpt><trkpt lat="41.08173414000834" lon="16.776463156675263"><ele>84.0</ele><time>2026-04-26T15:27:03Z</time></trkpt><trkpt lat="41.08174962676707" lon="16.77637957948793"><ele>84.0</ele><time>2026-04-26T15:27:05Z</time></trkpt><trkpt lat="41.08171344855056" lon="16.776256461160788"><ele>84.0</ele><time>2026-04-26T15:27:07Z</time></trkpt><trkpt lat="41.08169718296998" lon="16.77616092720113"><ele>84.0</ele><time>2026-04-26T15:27:09Z</time></trkpt><trkpt lat="41.08167737475004" lon="16.776049416600607"><ele>84.0</ele><time>2026-04-26T15:27:12Z</time></trkpt><trkpt lat="41.08173328602236" lon="16.775962456186253"><ele>84.0</ele><time>2026-04-26T15:27:15Z</time></trkpt><trkpt lat="41.08181439799804" lon="16.775981206708803"><ele>84.0</ele><time>2026-04-26T15:27:20Z</time></trkpt><trkpt lat="41.08193122100173" lon="16.775990699028604"><ele>84.0</ele><time>2026-04-26T15:27:24Z</time></trkpt><trkpt lat="41.08209115153144" lon="16.7760238486161"><ele>84.0</ele><time>2026-04-26T15:36:15Z</time></trkpt><trkpt lat="41.08233044113473" lon="16.776005562794875"><ele>84.0</ele><time>2026-04-26T15:36:22Z</time></trkpt><trkpt lat="41.08239622333028" lon="16.776076406428192"><ele>84.0</ele><time>2026-04-26T15:36:25Z</time></trkpt><trkpt lat="41.08238706859631" lon="16.776162178220872"><ele>84.0</ele><time>2026-04-26T15:36:26Z</time></trkpt><trkpt lat="41.082370297395435" lon="16.77625345531792"><ele>84.0</ele><time>2026-04-26T15:36:28Z</time></trkpt><trkpt lat="41.08235854172052" lon="16.776345254702044"><ele>84.0</ele><time>2026-04-26T15:36:30Z</time></trkpt><trkpt lat="41.082343088715106" lon="16.776432137528403"><ele>84.0</ele><time>2026-04-26T15:36:32Z</time></trkpt><trkpt lat="41.082306891154026" lon="16.776509475530975"><ele>84.0</ele><time>2026-04-26T15:36:35Z</time></trkpt><trkpt lat="41.082347350218335" lon="16.776644506572048"><ele>84.0</ele><time>2026-04-26T15:36:38Z</time></trkpt><trkpt lat="41.08231774293771" lon="16.776763778473224"><ele>84.0</ele><time>2026-04-26T15:36:40Z</time></trkpt><trkpt lat="41.082333159911826" lon="16.77686262816161"><ele>84.0</ele><time>2026-04-26T15:36:43Z</time></trkpt><trkpt lat="41.08234779603101" lon="16.776966568515874"><ele>84.0</ele><time>2026-04-26T15:36:45Z</time></trkpt><trkpt lat="41.08233317246244" lon="16.77706326844898"><ele>84.0</ele><time>2026-04-26T15:36:47Z</time></trkpt><trkpt lat="41.08231042453287" lon="16.777164225518884"><ele>84.0</ele><time>2026-04-26T15:36:49Z</time></trkpt><trkpt lat="41.082304001683006" lon="16.77730499221569"><ele>84.0</ele><time>2026-04-26T15:36:51Z</time></trkpt><trkpt lat="41.08229636856022" lon="16.777409115327725"><ele>84.0</ele><time>2026-04-26T15:36:53Z</time></trkpt><trkpt lat="41.082286705030434" lon="16.7775212187469"><ele>84.0</ele><time>2026-04-26T15:36:55Z</time></trkpt><trkpt lat="41.082252257507726" lon="16.777644665545616"><ele>84.0</ele><time>2026-04-26T15:36:57Z</time></trkpt><trkpt lat="41.08224524335565" lon="16.77774235157862"><ele>84.0</ele><time>2026-04-26T15:36:59Z</time></trkpt><trkpt lat="41.08221735258515" lon="16.777872349175354"><ele>84.0</ele><time>2026-04-26T15:37:01.001Z</time></trkpt><trkpt lat="41.08223294891082" lon="16.77795526462592"><ele>84.0</ele><time>2026-04-26T15:37:04.001Z</time></trkpt><trkpt lat="41.08217153058988" lon="16.77804253128843"><ele>84.0</ele><time>2026-04-26T15:37:07.001Z</time></trkpt><trkpt lat="41.08210556522273" lon="16.778041549288154"><ele>83.6</ele><time>2026-04-26T15:37:09.001Z</time></trkpt><trkpt lat="41.08202094829859" lon="16.778000583493263"><ele>83.2</ele><time>2026-04-26T15:37:11.001Z</time></trkpt><trkpt lat="41.08193819647397" lon="16.777968185476304"><ele>82.8</ele><time>2026-04-26T15:37:13.001Z</time></trkpt><trkpt lat="41.0818512792543" lon="16.777981939906336"><ele>82.39999999999999</ele><time>2026-04-26T15:37:15.001Z</time></trkpt><trkpt lat="41.08174552258349" lon="16.777973683147543"><ele>82.0</ele><time>2026-04-26T15:37:18.001Z</time></trkpt><trkpt lat="41.081655979316594" lon="16.7780562682882"><ele>82.0</ele><time>2026-04-26T15:37:20.001Z</time></trkpt><trkpt lat="41.08163499368594" lon="16.778211563974125"><ele>82.0</ele><time>2026-04-26T15:37:22.001Z</time></trkpt><trkpt lat="41.081631412484086" lon="16.778355075935846"><ele>82.0</ele><time>2026-04-26T15:37:24.001Z</time></trkpt><trkpt lat="41.08163537877588" lon="16.77847453982934"><ele>82.0</ele><time>2026-04-26T15:37:26.001Z</time></trkpt><trkpt lat="41.081615386195494" lon="16.77859739477459"><ele>82.0</ele><time>2026-04-26T15:37:28.001Z</time></trkpt><trkpt lat="41.08158155693252" lon="16.77872388013954"><ele>82.33333333333333</ele><time>2026-04-26T15:37:30.001Z</time></trkpt><trkpt lat="41.08157818553443" lon="16.778865053273126"><ele>82.66666666666666</ele><time>2026-04-26T15:37:32.001Z</time></trkpt><trkpt lat="41.0815402988987" lon="16.778992022615135"><ele>83.0</ele><time>2026-04-26T15:37:34.001Z</time></trkpt><trkpt lat="41.081531362140545" lon="16.779094747268253"><ele>83.33333333333333</ele><time>2026-04-26T15:37:36.001Z</time></trkpt><trkpt lat="41.08154910961232" lon="16.779201974743337"><ele>83.66666666666667</ele><time>2026-04-26T15:37:38.001Z</time></trkpt><trkpt lat="41.08153338880237" lon="16.779290415116744"><ele>84.0</ele><time>2026-04-26T15:37:40.001Z</time></trkpt><trkpt lat="41.081560648781725" lon="16.77939648577655"><ele>84.0</ele><time>2026-04-26T15:37:42.001Z</time></trkpt><trkpt lat="41.08159164820226" lon="16.77949377054107"><ele>84.0</ele><time>2026-04-26T15:37:44.001Z</time></trkpt><trkpt lat="41.08161501400565" lon="16.779591304177803"><ele>84.0</ele><time>2026-04-26T15:37:46.001Z</time></trkpt><trkpt lat="41.08157575169136" lon="16.7796629134913"><ele>84.0</ele><time>2026-04-26T15:37:48.001Z</time></trkpt><trkpt lat="41.081495414593064" lon="16.77969798899761"><ele>84.0</ele><time>2026-04-26T15:37:50.001Z</time></trkpt><trkpt lat="41.08140517462007" lon="16.779693678569863"><ele>84.0</ele><time>2026-04-26T15:37:52Z</time></trkpt><trkpt lat="41.08131847399032" lon="16.7797192066334"><ele>84.0</ele><time>2026-04-26T15:37:54Z</time></trkpt><trkpt lat="41.081226215891085" lon="16.77973882110456"><ele>84.0</ele><time>2026-04-26T15:37:56Z</time></trkpt><trkpt lat="41.08116306856846" lon="16.77973946513846"><ele>84.0</ele><time>2026-04-26T15:37:58Z</time></trkpt><trkpt lat="41.081101614763355" lon="16.77977297608244"><ele>84.0</ele><time>2026-04-26T15:38:00Z</time></trkpt><trkpt lat="41.08103469683168" lon="16.77978597943073"><ele>84.0</ele><time>2026-04-26T15:38:02Z</time></trkpt><trkpt lat="41.0809669976736" lon="16.779749252256998"><ele>84.0</ele><time>2026-04-26T15:38:03Z</time></trkpt><trkpt lat="41.08092534926815" lon="16.77967277293414"><ele>84.0</ele><time>2026-04-26T15:38:04Z</time></trkpt><trkpt lat="41.080848973482276" lon="16.77968138684058"><ele>84.0</ele><time>2026-04-26T15:38:06Z</time></trkpt><trkpt lat="41.080772641584254" lon="16.77970277773482"><ele>84.0</ele><time>2026-04-26T15:38:08Z</time></trkpt><trkpt lat="41.08069998548654" lon="16.77973819333303"><ele>84.0</ele><time>2026-04-26T15:38:10Z</time></trkpt><trkpt lat="41.080594372217824" lon="16.779761287671235"><ele>84.0</ele><time>2026-04-26T15:38:12Z</time></trkpt><trkpt lat="41.08053099627334" lon="16.779756971494937"><ele>84.0</ele><time>2026-04-26T15:38:14Z</time></trkpt><trkpt lat="41.08045607591596" lon="16.779778739636306"><ele>84.0</ele><time>2026-04-26T15:38:16Z</time></trkpt><trkpt lat="41.0803870982241" lon="16.779787557909557"><ele>84.33333333333333</ele><time>2026-04-26T15:38:19Z</time></trkpt><trkpt lat="41.0803061171039" lon="16.779808929753486"><ele>84.66666666666667</ele><time>2026-04-26T15:38:22Z</time></trkpt><trkpt lat="41.08022125414018" lon="16.77989460244717"><ele>85.0</ele><time>2026-04-26T15:38:25Z</time></trkpt><trkpt lat="41.080138637840356" lon="16.77995787810257"><ele>85.33333333333334</ele><time>2026-04-26T15:38:27Z</time></trkpt><trkpt lat="41.08005706223748" lon="16.780030641599986"><ele>85.66666666666667</ele><time>2026-04-26T15:38:29Z</time></trkpt><trkpt lat="41.08001112465687" lon="16.780094139425454"><ele>86.0</ele><time>2026-04-26T15:38:31Z</time></trkpt><trkpt lat="41.07994044797391" lon="16.780145208753535"><ele>86.19999999999999</ele><time>2026-04-26T15:38:34Z</time></trkpt><trkpt lat="41.079926709514396" lon="16.780231080763617"><ele>86.39999999999999</ele><time>2026-04-26T15:38:36Z</time></trkpt><trkpt lat="41.07995917027503" lon="16.780358650234774"><ele>86.6</ele><time>2026-04-26T15:38:40Z</time></trkpt><trkpt lat="41.079964178212336" lon="16.780501463236213"><ele>86.8</ele><time>2026-04-26T15:38:42Z</time></trkpt><trkpt lat="41.079985952226835" lon="16.780618454486696"><ele>87.0</ele><time>2026-04-26T15:38:44Z</time></trkpt><trkpt lat="41.080008495777236" lon="16.780766220637446"><ele>87.0</ele><time>2026-04-26T15:38:46Z</time></trkpt><trkpt lat="41.079962359543416" lon="16.780857597079848"><ele>87.0</ele><time>2026-04-26T15:38:48Z</time></trkpt><trkpt lat="41.079941578437605" lon="16.78096348941821"><ele>87.0</ele><time>2026-04-26T15:38:50Z</time></trkpt><trkpt lat="41.07993930979401" lon="16.78107185365023"><ele>87.0</ele><time>2026-04-26T15:38:52.001Z</time></trkpt><trkpt lat="41.07994235156448" lon="16.781192924230357"><ele>87.0</ele><time>2026-04-26T15:38:54.001Z</time></trkpt><trkpt lat="41.07995316476651" lon="16.781310417835556"><ele>87.0</ele><time>2026-04-26T15:38:56.001Z</time></trkpt><trkpt lat="41.079958260683654" lon="16.781431558075003"><ele>86.83333333333333</ele><time>2026-04-26T15:38:58.001Z</time></trkpt><trkpt lat="41.079968932641165" lon="16.781532393001655"><ele>86.66666666666667</ele><time>2026-04-26T15:39:00.001Z</time></trkpt><trkpt lat="41.07998642951577" lon="16.781648291363556"><ele>86.5</ele><time>2026-04-26T15:39:02.001Z</time></trkpt><trkpt lat="41.07999535192643" lon="16.78174768998065"><ele>86.33333333333334</ele><time>2026-04-26T15:39:04.001Z</time></trkpt><trkpt lat="41.08002410733549" lon="16.781826529453237"><ele>86.16666666666667</ele><time>2026-04-26T15:39:06.001Z</time></trkpt><trkpt lat="41.080023676337326" lon="16.781971388564628"><ele>86.0</ele><time>2026-04-26T15:39:08.001Z</time></trkpt><trkpt lat="41.08000009239368" lon="16.782114481050712"><ele>85.66666666666667</ele><time>2026-04-26T15:39:10.001Z</time></trkpt><trkpt lat="41.08000768297805" lon="16.782253771911034"><ele>85.33333333333334</ele><time>2026-04-26T15:39:12.001Z</time></trkpt><trkpt lat="41.08001723293042" lon="16.78237078571181"><ele>85.0</ele><time>2026-04-26T15:39:14.001Z</time></trkpt><trkpt lat="41.07999647291698" lon="16.782475815832473"><ele>84.66666666666667</ele><time>2026-04-26T15:39:16.001Z</time></trkpt><trkpt lat="41.080003630921745" lon="16.782593270020016"><ele>84.33333333333333</ele><time>2026-04-26T15:39:18.001Z</time></trkpt><trkpt lat="41.080012392494034" lon="16.782701029795163"><ele>84.0</ele><time>2026-04-26T15:39:20.001Z</time></trkpt><trkpt lat="41.080012521106475" lon="16.78278612102669"><ele>83.83333333333333</ele><time>2026-04-26T15:39:22.001Z</time></trkpt><trkpt lat="41.07996245277884" lon="16.782837167460197"><ele>83.66666666666667</ele><time>2026-04-26T15:39:24.001Z</time></trkpt><trkpt lat="41.07986540369871" lon="16.782826825053455"><ele>83.5</ele><time>2026-04-26T15:39:26.001Z</time></trkpt><trkpt lat="41.0797792770908" lon="16.782827607764123"><ele>83.33333333333334</ele><time>2026-04-26T15:39:28.001Z</time></trkpt><trkpt lat="41.07971635719161" lon="16.782804181832926"><ele>83.16666666666667</ele><time>2026-04-26T15:39:30.001Z</time></trkpt><trkpt lat="41.07962994728373" lon="16.782794048234262"><ele>83.0</ele><time>2026-04-26T15:39:32.001Z</time></trkpt><trkpt lat="41.07958502365367" lon="16.78286613411719"><ele>83.0</ele><time>2026-04-26T15:39:35.001Z</time></trkpt><trkpt lat="41.079570160984666" lon="16.782948828984416"><ele>83.0</ele><time>2026-04-26T15:39:37.001Z</time></trkpt><trkpt lat="41.07955168523972" lon="16.783061657154985"><ele>83.0</ele><time>2026-04-26T15:39:39.001Z</time></trkpt><trkpt lat="41.07952351230676" lon="16.783196010652187"><ele>83.0</ele><time>2026-04-26T15:39:41.001Z</time></trkpt><trkpt lat="41.07947081650702" lon="16.783304705518802"><ele>83.0</ele><time>2026-04-26T15:39:43.001Z</time></trkpt><trkpt lat="41.07946038976893" lon="16.78342597466038"><ele>83.0</ele><time>2026-04-26T15:39:45.001Z</time></trkpt><trkpt lat="41.0794654599261" lon="16.783572973720243"><ele>83.0</ele><time>2026-04-26T15:39:47.001Z</time></trkpt><trkpt lat="41.07945716667009" lon="16.783684326969244"><ele>83.0</ele><time>2026-04-26T15:39:49.001Z</time></trkpt><trkpt lat="41.07945897212348" lon="16.78377088180692"><ele>83.0</ele><time>2026-04-26T15:39:51.001Z</time></trkpt><trkpt lat="41.07942696890802" lon="16.78387401935936"><ele>83.0</ele><time>2026-04-26T15:39:53.001Z</time></trkpt><trkpt lat="41.07944916875323" lon="16.783957307717593"><ele>83.0</ele><time>2026-04-26T15:39:54.001Z</time></trkpt><trkpt lat="41.07941777376806" lon="16.78404141809925"><ele>83.0</ele><time>2026-04-26T15:39:56.001Z</time></trkpt><trkpt lat="41.07936872176172" lon="16.784121363242754"><ele>83.0</ele><time>2026-04-26T15:39:59Z</time></trkpt><trkpt lat="41.0793667878382" lon="16.78422415388956"><ele>83.0</ele><time>2026-04-26T15:40:01Z</time></trkpt><trkpt lat="41.07934971753518" lon="16.784330397814152"><ele>83.0</ele><time>2026-04-26T15:40:03Z</time></trkpt><trkpt lat="41.079318190386815" lon="16.784439970094283"><ele>83.0</ele><time>2026-04-26T15:40:06Z</time></trkpt><trkpt lat="41.07930606601978" lon="16.784545865987592"><ele>83.0</ele><time>2026-04-26T15:40:09Z</time></trkpt><trkpt lat="41.07921829306119" lon="16.78453251728038"><ele>83.0</ele><time>2026-04-26T15:40:13Z</time></trkpt><trkpt lat="41.079152009697104" lon="16.784504122078236"><ele>83.0</ele><time>2026-04-26T15:40:15Z</time></trkpt><trkpt lat="41.07907841586887" lon="16.784414319878994"><ele>82.83333333333334</ele><time>2026-04-26T15:40:17Z</time></trkpt><trkpt lat="41.07901523534072" lon="16.784372685048503"><ele>82.66666666666667</ele><time>2026-04-26T15:40:19Z</time></trkpt><trkpt lat="41.07892148439294" lon="16.78436576823761"><ele>82.5</ele><time>2026-04-26T15:40:21Z</time></trkpt><trkpt lat="41.07885307816024" lon="16.784339183635872"><ele>82.33333333333333</ele><time>2026-04-26T15:40:23Z</time></trkpt><trkpt lat="41.07878265574919" lon="16.784284184895473"><ele>82.16666666666666</ele><time>2026-04-26T15:40:26Z</time></trkpt><trkpt lat="41.07875425357929" lon="16.78440982548476"><ele>82.0</ele><time>2026-04-26T15:40:29Z</time></trkpt><trkpt lat="41.07870671831249" lon="16.784493395351063"><ele>81.83333333333333</ele><time>2026-04-26T15:40:31Z</time></trkpt><trkpt lat="41.07868555686041" lon="16.78459426094161"><ele>81.66666666666666</ele><time>2026-04-26T15:40:33Z</time></trkpt><trkpt lat="41.078638968141576" lon="16.78468435800993"><ele>81.5</ele><time>2026-04-26T15:40:35Z</time></trkpt><trkpt lat="41.07857168261698" lon="16.784762105765026"><ele>81.33333333333333</ele><time>2026-04-26T15:40:39Z</time></trkpt><trkpt lat="41.078498531726424" lon="16.784668473384684"><ele>81.16666666666667</ele><time>2026-04-26T15:40:42Z</time></trkpt><trkpt lat="41.07845035201602" lon="16.784599110405225"><ele>81.0</ele><time>2026-04-26T15:40:44Z</time></trkpt><trkpt lat="41.07834982814233" lon="16.78461412465029"><ele>81.0</ele><time>2026-04-26T15:40:45Z</time></trkpt><trkpt lat="41.078274870890326" lon="16.784571148877856"><ele>81.0</ele><time>2026-04-26T15:40:47.001Z</time></trkpt><trkpt lat="41.07818317098185" lon="16.784522190739153"><ele>81.0</ele><time>2026-04-26T15:40:50.001Z</time></trkpt><trkpt lat="41.07809863899392" lon="16.78446090574925"><ele>81.0</ele><time>2026-04-26T15:40:52.001Z</time></trkpt><trkpt lat="41.07803764779203" lon="16.78441374039486"><ele>81.0</ele><time>2026-04-26T15:40:54.001Z</time></trkpt><trkpt lat="41.07796778141836" lon="16.784372434566077"><ele>81.0</ele><time>2026-04-26T15:40:56.001Z</time></trkpt><trkpt lat="41.07790151343409" lon="16.784333095685334"><ele>82.0</ele><time>2026-04-26T15:40:59.001Z</time></trkpt></trkseg></trk></gpx>